Observation data for Guadalupe Mtns Park on 11/18/2019      Previous  Date       Current Mesonet Observations  Soil Data  Daily Summary Page  Observations in Plain Language
KGU1 180600Z 20007KT 09/M03 A3015 RMK A01 T00931028  RH  043%=      5-min Rain = 0
KGU1 180601Z 20008KT 10/M03 A3014 RMK A01 T00951029  RH  042%=      5-min Rain = 0
KGU1 180602Z 20010KT 10/M03 A3014 RMK A01 T00971028  RH  042%=      5-min Rain = 0
KGU1 180603Z 20011KT 10/M03 A3014 RMK A01 T00971026  RH  042%=      5-min Rain = 0
KGU1 180604Z 21009KT 10/M03 A3015 RMK A01 T00961025  RH  043%=      5-min Rain = 0
KGU1 180605Z 20010KT 10/M03 A3015 RMK A01 T00961025  RH  043%=      5-min Rain = 0
KGU1 180606Z 20008KT 10/M03 A3015 RMK A01 T00951025  RH  043%=      5-min Rain = 0
KGU1 180607Z 20009KT 09/M03 A3015 RMK A01 T00941025  RH  044%=      5-min Rain = 0
KGU1 180608Z 20008KT 09/M03 A3015 RMK A01 T00931025  RH  044%=      5-min Rain = 0
KGU1 180609Z 20009KT 09/M03 A3015 RMK A01 T00931025  RH  044%=      5-min Rain = 0
KGU1 180610Z 20008KT 09/M03 A3015 RMK A01 T00931025  RH  044%=      5-min Rain = 0
KGU1 180611Z 19007KT 09/M03 A3014 RMK A01 T00931025  RH  044%=      5-min Rain = 0
KGU1 180612Z 19008KT 09/M03 A3014 RMK A01 T00921025  RH  044%=      5-min Rain = 0
KGU1 180613Z 20010KT 09/M03 A3014 RMK A01 T00911025  RH  044%=      5-min Rain = 0
KGU1 180614Z 20010KT 09/M02 A3014 RMK A01 T00921024  RH  045%=      5-min Rain = 0
KGU1 180615Z 21007KT 09/M02 A3014 RMK A01 T00911023  RH  045%=      5-min Rain = 0
KGU1 180616Z 21009KT 09/M02 A3014 RMK A01 T00911024  RH  045%=      5-min Rain = 0
KGU1 180617Z 20010KT 09/M02 A3014 RMK A01 T00911024  RH  045%=      5-min Rain = 0
KGU1 180618Z 19011KT 09/M02 A3014 RMK A01 T00911024  RH  045%=      5-min Rain = 0
KGU1 180619Z 20009KT 09/M02 A3014 RMK A01 T00911024  RH  045%=      5-min Rain = 0
KGU1 180620Z 19010KT 09/M03 A3014 RMK A01 T00911025  RH  044%=      5-min Rain = 0
KGU1 180621Z 20010KT 09/M03 A3014 RMK A01 T00941026  RH  043%=      5-min Rain = 0
KGU1 180622Z 19010KT 09/M03 A3014 RMK A01 T00941026  RH  043%=      5-min Rain = 0
KGU1 180623Z 18008KT 09/M03 A3014 RMK A01 T00941026  RH  043%=      5-min Rain = 0
KGU1 180624Z 18010KT 09/M03 A3014 RMK A01 T00931026  RH  043%=      5-min Rain = 0
KGU1 180625Z 20008KT 09/M02 A3014 RMK A01 T00931024  RH  044%=      5-min Rain = 0
KGU1 180626Z 19009KT 09/M03 A3014 RMK A01 T00921026  RH  044%=      5-min Rain = 0
KGU1 180627Z 20009KT 09/M03 A3014 RMK A01 T00941029  RH  042%=      5-min Rain = 0
KGU1 180628Z 20010KT 10/M03 A3014 RMK A01 T00971030  RH  041%=      5-min Rain = 0
KGU1 180629Z 20009KT 10/M03 A3014 RMK A01 T00971028  RH  042%=      5-min Rain = 0
KGU1 180630Z 21007KT 10/M03 A3014 RMK A01 T00961027  RH  042%=      5-min Rain = 0
KGU1 180631Z 19009KT 10/M03 A3014 RMK A01 T00961026  RH  042%=      5-min Rain = 0
KGU1 180632Z 19008KT 10/M03 A3013 RMK A01 T00961027  RH  042%=      5-min Rain = 0
KGU1 180633Z 19008KT 10/M03 A3013 RMK A01 T00961027  RH  042%=      5-min Rain = 0
KGU1 180634Z 21007G12KT 10/M03 A3013 RMK A01 T00961028  RH  042%=      5-min Rain = 0
KGU1 180635Z 20009KT 10/M03 A3013 RMK A01 T00961028  RH  042%=      5-min Rain = 0
KGU1 180636Z 20008KT 10/M03 A3013 RMK A01 T00971030  RH  041%=      5-min Rain = 0
KGU1 180637Z 20007KT 10/M03 A3013 RMK A01 T00981030  RH  041%=      5-min Rain = 0
KGU1 180638Z 20006KT 10/M03 A3013 RMK A01 T00981030  RH  041%=      5-min Rain = 0
KGU1 180639Z 21005KT 10/M03 A3013 RMK A01 T00981030  RH  041%=      5-min Rain = 0
KGU1 180640Z 19006KT 10/M03 A3013 RMK A01 T00981031  RH  041%=      5-min Rain = 0
KGU1 180641Z 20013KT 10/M03 A3013 RMK A01 T00971030  RH  041%=      5-min Rain = 0
KGU1 180642Z 20008KT 10/M03 A3013 RMK A01 T00961028  RH  042%=      5-min Rain = 0
KGU1 180643Z 21006KT 10/M03 A3013 RMK A01 T00961029  RH  042%=      5-min Rain = 0
KGU1 180644Z 20006KT 10/M03 A3013 RMK A01 T00961029  RH  042%=      5-min Rain = 0
KGU1 180645Z 20007KT 10/M03 A3013 RMK A01 T00951027  RH  042%=      5-min Rain = 0
KGU1 180646Z 21006KT 09/M03 A3013 RMK A01 T00941028  RH  043%=      5-min Rain = 0
KGU1 180647Z 22006KT 09/M03 A3013 RMK A01 T00941030  RH  042%=      5-min Rain = 0
KGU1 180648Z 22008KT 10/M03 A3013 RMK A01 T00961029  RH  042%=      5-min Rain = 0
KGU1 180649Z 20010KT 10/M03 A3013 RMK A01 T00961027  RH  042%=      5-min Rain = 0
KGU1 180650Z 21009KT 09/M03 A3013 RMK A01 T00941027  RH  043%=      5-min Rain = 0
KGU1 180651Z 20016KT 09/M03 A3012 RMK A01 T00941028  RH  043%=      5-min Rain = 0
KGU1 180652Z 20012KT 10/M03 A3012 RMK A01 T00951028  RH  042%=      5-min Rain = 0
KGU1 180653Z 23008KT 10/M03 A3013 RMK A01 T00951027  RH  043%=      5-min Rain = 0
KGU1 180654Z 21009KT 09/M03 A3013 RMK A01 T00931026  RH  043%=      5-min Rain = 0
KGU1 180655Z 22008KT 09/M03 A3013 RMK A01 T00921027  RH  043%=      5-min Rain = 0
KGU1 180656Z 22008KT 09/M03 A3013 RMK A01 T00921029  RH  043%=      5-min Rain = 0
KGU1 180657Z 24006KT 09/M03 A3013 RMK A01 T00941030  RH  042%=      5-min Rain = 0
KGU1 180658Z 22011KT 09/M03 A3013 RMK A01 T00941032  RH  041%=      5-min Rain = 0
KGU1 180659Z 22008KT 10/M03 A3013 RMK A01 T00971033  RH  040%=      5-min Rain = 0
KGU1 180700Z 23009KT 10/M03 A3013 RMK A01 T00951029  RH  042%=      5-min Rain = 0
KGU1 180701Z 22011KT 09/M03 A3013 RMK A01 T00931027  RH  043%=      5-min Rain = 0
KGU1 180702Z 22010KT 09/M03 A3013 RMK A01 T00921028  RH  043%=      5-min Rain = 0
KGU1 180703Z 22008KT 09/M03 A3013 RMK A01 T00911027  RH  044%=      5-min Rain = 0
KGU1 180704Z 22008G13KT 09/M03 A3012 RMK A01 T00891026  RH  045%=      5-min Rain = 0
KGU1 180705Z 24008KT 09/M03 A3012 RMK A01 T00881027  RH  045%=      5-min Rain = 0
KGU1 180706Z 23010KT 09/M03 A3012 RMK A01 T00891028  RH  044%=      5-min Rain = 0
KGU1 180707Z 23008KT 09/M03 A3012 RMK A01 T00921033  RH  041%=      5-min Rain = 0
KGU1 180708Z 23005KT 10/M04 A3012 RMK A01 T00961035  RH  040%=      5-min Rain = 0
KGU1 180709Z 28005KT 10/M04 A3012 RMK A01 T00971037  RH  039%=      5-min Rain = 0
KGU1 180710Z 27006KT 10/M04 A3012 RMK A01 T01011044  RH  036%=      5-min Rain = 0
KGU1 180711Z 22008KT 11/M04 A3012 RMK A01 T01051043  RH  035%=      5-min Rain = 0
KGU1 180712Z 20008KT 10/M03 A3012 RMK A01 T01031034  RH  038%=      5-min Rain = 0
KGU1 180713Z 21006KT 10/M03 A3012 RMK A01 T00991034  RH  039%=      5-min Rain = 0
KGU1 180714Z 25003KT 10/M04 A3011 RMK A01 T00991037  RH  038%=      5-min Rain = 0
KGU1 180715Z 29006KT 10/M04 A3011 RMK A01 T01001043  RH  037%=      5-min Rain = 0
KGU1 180716Z 29008KT 11/M06 A3011 RMK A01 T01061061  RH  030%=      5-min Rain = 0
KGU1 180717Z 29008KT 12/M07 A3011 RMK A01 T01161066  RH  027%=      5-min Rain = 0
KGU1 180718Z 30008KT 13/M07 A3011 RMK A01 T01251069  RH  025%=      5-min Rain = 0
KGU1 180719Z 30010KT 13/M07 A3011 RMK A01 T01311069  RH  024%=      5-min Rain = 0
KGU1 180720Z 30010KT 14/M07 A3011 RMK A01 T01361069  RH  023%=      5-min Rain = 0
KGU1 180721Z 29010KT 14/M07 A3011 RMK A01 T01381070  RH  023%=      5-min Rain = 0
KGU1 180722Z 28010KT 14/M07 A3011 RMK A01 T01381069  RH  023%=      5-min Rain = 0
KGU1 180723Z 28012KT 14/M07 A3011 RMK A01 T01381069  RH  023%=      5-min Rain = 0
KGU1 180724Z 28010KT 14/M07 A3011 RMK A01 T01401070  RH  023%=      5-min Rain = 0
KGU1 180725Z 29014G19KT 14/M07 A3011 RMK A01 T01401070  RH  023%=      5-min Rain = 0
KGU1 180726Z 30016KT 15/M07 A3011 RMK A01 T01451072  RH  022%=      5-min Rain = 0
KGU1 180727Z 30015KT 15/M07 A3011 RMK A01 T01511072  RH  021%=      5-min Rain = 0
KGU1 180728Z 30013KT 15/M07 A3011 RMK A01 T01521072  RH  021%=      5-min Rain = 0
KGU1 180729Z 29014KT 15/M07 A3011 RMK A01 T01481071  RH  021%=      5-min Rain = 0
KGU1 180730Z 29017KT 15/M07 A3011 RMK A01 T01451071  RH  022%=      5-min Rain = 0
KGU1 180731Z 28016KT 15/M07 A3011 RMK A01 T01471071  RH  021%=      5-min Rain = 0
KGU1 180732Z 28014KT 15/M07 A3011 RMK A01 T01471071  RH  022%=      5-min Rain = 0
KGU1 180733Z 29015KT 15/M07 A3011 RMK A01 T01451071  RH  022%=      5-min Rain = 0
KGU1 180734Z 29014KT 15/M07 A301 RMK A01 T01461071  RH  022%=      5-min Rain = 0
KGU1 180735Z 29018KT 15/M07 A301 RMK A01 T01471072  RH  021%=      5-min Rain = 0
KGU1 180736Z 29018KT 15/M07 A301 RMK A01 T01521073  RH  021%=      5-min Rain = 0
KGU1 180737Z 28015G20KT 16/M07 A301 RMK A01 T01551073  RH  020%=      5-min Rain = 0
KGU1 180738Z 28017KT 16/M07 A301 RMK A01 T01551073  RH  020%=      5-min Rain = 0
KGU1 180739Z 29017KT 16/M07 A3011 RMK A01 T01571073  RH  020%=      5-min Rain = 0
KGU1 180740Z 29018KT 16/M07 A3011 RMK A01 T01571074  RH  020%=      5-min Rain = 0
KGU1 180741Z 29015KT 16/M07 A3011 RMK A01 T01571074  RH  020%=      5-min Rain = 0
KGU1 180742Z 29015KT 16/M07 A3011 RMK A01 T01571073  RH  020%=      5-min Rain = 0
KGU1 180743Z 29019G25KT 16/M08 A3011 RMK A01 T01571075  RH  020%=      5-min Rain = 0
KGU1 180744Z 29014KT 16/M08 A301 RMK A01 T01611076  RH  019%=      5-min Rain = 0
KGU1 180745Z 28014KT 16/M08 A301 RMK A01 T01601075  RH  019%=      5-min Rain = 0
KGU1 180746Z 28015KT 16/M07 A301 RMK A01 T01561074  RH  020%=      5-min Rain = 0
KGU1 180747Z 27016KT 16/M08 A301 RMK A01 T01551075  RH  020%=      5-min Rain = 0
KGU1 180748Z 28017KT 16/M08 A301 RMK A01 T01561075  RH  020%=      5-min Rain = 0
KGU1 180749Z 28017KT 16/M08 A3011 RMK A01 T01561075  RH  020%=      5-min Rain = 0
KGU1 180750Z 29017G24KT 16/M08 A3011 RMK A01 T01581077  RH  019%=      5-min Rain = 0
KGU1 180751Z 27014KT 16/M08 A3011 RMK A01 T01601076  RH  019%=      5-min Rain = 0
KGU1 180752Z 27014KT 16/M07 A3011 RMK A01 T01561074  RH  020%=      5-min Rain = 0
KGU1 180753Z 29015KT 15/M07 A3011 RMK A01 T01541074  RH  020%=      5-min Rain = 0
KGU1 180754Z 28015KT 15/M08 A3011 RMK A01 T01541075  RH  020%=      5-min Rain = 0
KGU1 180755Z 29015KT 15/M08 A3011 RMK A01 T01541075  RH  020%=      5-min Rain = 0
KGU1 180756Z 29018KT 15/M08 A3011 RMK A01 T01541075  RH  020%=      5-min Rain = 0
KGU1 180757Z 28017KT 15/M08 A3011 RMK A01 T01541076  RH  020%=      5-min Rain = 0
KGU1 180758Z 28015KT 15/M08 A3011 RMK A01 T01541076  RH  020%=      5-min Rain = 0
KGU1 180759Z 28014KT 15/M08 A3011 RMK A01 T01541075  RH  020%=      5-min Rain = 0
KGU1 180800Z 28015KT 15/M08 A3011 RMK A01 T01531076  RH  020%=      5-min Rain = 0
KGU1 180801Z 28013KT 15/M08 A3011 RMK A01 T01541076  RH  020%=      5-min Rain = 0
KGU1 180802Z 27011KT 15/M08 A3011 RMK A01 T01541075  RH  020%=      5-min Rain = 0
KGU1 180803Z 27011KT 15/M08 A301 RMK A01 T01501075  RH  020%=      5-min Rain = 0
KGU1 180804Z 25010KT 15/M07 A301 RMK A01 T01481074  RH  021%=      5-min Rain = 0
KGU1 180805Z 24012KT 15/M07 A301 RMK A01 T01471073  RH  021%=      5-min Rain = 0
KGU1 180806Z 24015KT 15/M07 A301 RMK A01 T01481072  RH  021%=      5-min Rain = 0
KGU1 180807Z 23012KT 15/M07 A3011 RMK A01 T01481072  RH  021%=      5-min Rain = 0
KGU1 180808Z 23010KT 15/M07 A3011 RMK A01 T01471070  RH  022%=      5-min Rain = 0
KGU1 180809Z 23010KT 14/M07 A3011 RMK A01 T01421067  RH  023%=      5-min Rain = 0
KGU1 180810Z 24010KT 14/M07 A3011 RMK A01 T01411068  RH  023%=      5-min Rain = 0
KGU1 180811Z 25013KT 14/M07 A301 RMK A01 T01401066  RH  023%=      5-min Rain = 0
KGU1 180812Z 23011KT 14/M07 A301 RMK A01 T01411069  RH  023%=      5-min Rain = 0
KGU1 180813Z 21012KT 14/M07 A301 RMK A01 T01421070  RH  022%=      5-min Rain = 0
KGU1 180814Z 23011KT 14/M07 A301 RMK A01 T01441069  RH  022%=      5-min Rain = 0
KGU1 180815Z 23015KT 14/M07 A301 RMK A01 T01411068  RH  023%=      5-min Rain = 0
KGU1 180816Z 21014KT 14/M07 A301 RMK A01 T01391066  RH  024%=      5-min Rain = 0
KGU1 180817Z 22013KT 14/M07 A301 RMK A01 T01391065  RH  024%=      5-min Rain = 0
KGU1 180818Z 23011KT 14/M06 A301 RMK A01 T01371063  RH  024%=      5-min Rain = 0
KGU1 180819Z 22013KT 13/M06 A301 RMK A01 T01321058  RH  026%=      5-min Rain = 0
KGU1 180820Z 22012KT 13/M06 A301 RMK A01 T01291058  RH  027%=      5-min Rain = 0
KGU1 180821Z 23011G16KT 13/M06 A301 RMK A01 T01291060  RH  026%=      5-min Rain = 0
KGU1 180822Z 23011KT 13/M06 A301 RMK A01 T01291059  RH  027%=      5-min Rain = 0
KGU1 180823Z 22014G19KT 13/M06 A301 RMK A01 T01291061  RH  026%=      5-min Rain = 0
KGU1 180824Z 21016KT 13/M06 A301 RMK A01 T01311057  RH  027%=      5-min Rain = 0
KGU1 180825Z 22012KT 13/M05 A301 RMK A01 T01251050  RH  029%=      5-min Rain = 0
KGU1 180826Z 23012KT 12/M05 A301 RMK A01 T01221053  RH  029%=      5-min Rain = 0
KGU1 180827Z 24013KT 12/M06 A301 RMK A01 T01221056  RH  028%=      5-min Rain = 0
KGU1 180828Z 23013KT 12/M05 A301 RMK A01 T01221051  RH  030%=      5-min Rain = 0
KGU1 180829Z 23010KT 12/M05 A301 RMK A01 T01191049  RH  030%=      5-min Rain = 0
KGU1 180830Z 22017KT 12/M05 A301 RMK A01 T01161045  RH  032%=      5-min Rain = 0
KGU1 180831Z 22013KT 11/M04 A301 RMK A01 T01081036  RH  036%=      5-min Rain = 0
KGU1 180832Z 22011KT 10/M04 A301 RMK A01 T01031035  RH  038%=      5-min Rain = 0
KGU1 180833Z 22010KT 10/M04 A301 RMK A01 T01001039  RH  037%=      5-min Rain = 0
KGU1 180834Z 22015KT 10/M04 A301 RMK A01 T01011039  RH  037%=      5-min Rain = 0
KGU1 180835Z 22015KT 10/M04 A301 RMK A01 T01001037  RH  038%=      5-min Rain = 0
KGU1 180836Z 22013G18KT 10/M04 A301 RMK A01 T01001037  RH  038%=      5-min Rain = 0
KGU1 180837Z 21017KT 10/M04 A301 RMK A01 T00991036  RH  039%=      5-min Rain = 0
KGU1 180838Z 22014KT 10/M04 A301 RMK A01 T00981035  RH  039%=      5-min Rain = 0
KGU1 180839Z 22014KT 10/M03 A301 RMK A01 T00971034  RH  040%=      5-min Rain = 0
KGU1 180840Z 22010KT 09/M03 A301 RMK A01 T00941031  RH  042%=      5-min Rain = 0
KGU1 180841Z 21018KT 09/M03 A301 RMK A01 T00931031  RH  042%=      5-min Rain = 0
KGU1 180842Z 22015KT 09/M03 A301 RMK A01 T00911028  RH  043%=      5-min Rain = 0
KGU1 180843Z 21017G22KT 09/M03 A301 RMK A01 T00891026  RH  045%=      5-min Rain = 0
KGU1 180844Z 22016KT 09/M03 A301 RMK A01 T00871027  RH  045%=      5-min Rain = 0
KGU1 180845Z 22013G19KT 09/M03 A301 RMK A01 T00881027  RH  045%=      5-min Rain = 0
KGU1 180846Z 22013KT 09/M03 A301 RMK A01 T00871027  RH  045%=      5-min Rain = 0
KGU1 180847Z 21013KT 09/M03 A301 RMK A01 T00871028  RH  045%=      5-min Rain = 0
KGU1 180848Z 21013KT 09/M03 A301 RMK A01 T00871029  RH  044%=      5-min Rain = 0
KGU1 180849Z 21013G18KT 09/M03 A301 RMK A01 T00881028  RH  044%=      5-min Rain = 0
KGU1 180850Z 21017KT 09/M03 A301 RMK A01 T00881026  RH  045%=      5-min Rain = 0
KGU1 180851Z 21016KT 09/M02 A301 RMK A01 T00871024  RH  046%=      5-min Rain = 0
KGU1 180852Z 22015KT 09/M02 A301 RMK A01 T00871024  RH  046%=      5-min Rain = 0
KGU1 180853Z 21016KT 09/M03 A301 RMK A01 T00871025  RH  046%=      5-min Rain = 0
KGU1 180854Z 22017KT 09/M02 A301 RMK A01 T00871024  RH  046%=      5-min Rain = 0
KGU1 180855Z 21012KT 09/M02 A301 RMK A01 T00881023  RH  046%=      5-min Rain = 0
KGU1 180856Z 22018KT 09/M02 A301 RMK A01 T00881024  RH  046%=      5-min Rain = 0
KGU1 180857Z 21020G25KT 09/M02 A301 RMK A01 T00891022  RH  046%=      5-min Rain = 0
KGU1 180858Z 22019G24KT 09/M02 A301 RMK A01 T00891022  RH  046%=      5-min Rain = 0
KGU1 180859Z 20019G24KT 09/M02 A301 RMK A01 T00881022  RH  046%=      5-min Rain = 0
KGU1 180900Z 21020G25KT 09/M02 A301 RMK A01 T00881022  RH  046%=      5-min Rain = 0
KGU1 180901Z 21019KT 09/M02 A301 RMK A01 T00881022  RH  046%=      5-min Rain = 0
KGU1 180902Z 21016KT 09/M03 A301 RMK A01 T00901026  RH  044%=      5-min Rain = 0
KGU1 180903Z 21019G25KT 09/M02 A301 RMK A01 T00911024  RH  045%=      5-min Rain = 0
KGU1 180904Z 20018G24KT 09/M02 A301 RMK A01 T00901023  RH  045%=      5-min Rain = 0
KGU1 180905Z 21018KT 09/M02 A301 RMK A01 T00901024  RH  045%=      5-min Rain = 0
KGU1 180906Z 21018G24KT 09/M02 A301 RMK A01 T00901024  RH  045%=      5-min Rain = 0
KGU1 180907Z 20021KT 09/M02 A301 RMK A01 T00911023  RH  045%=      5-min Rain = 0
KGU1 180908Z 20018KT 09/M02 A301 RMK A01 T00911024  RH  045%=      5-min Rain = 0
KGU1 180909Z 20020KT 09/M02 A301 RMK A01 T00911024  RH  045%=      5-min Rain = 0
KGU1 180910Z 20014G22KT 09/M03 A301 RMK A01 T00911025  RH  044%=      5-min Rain = 0
KGU1 180911Z 21017KT 09/M03 A301 RMK A01 T00921025  RH  044%=      5-min Rain = 0
KGU1 180912Z 20018G25KT 09/M03 A301 RMK A01 T00921026  RH  044%=      5-min Rain = 0
KGU1 180913Z 20018KT 09/M03 A301 RMK A01 T00931026  RH  044%=      5-min Rain = 0
KGU1 180914Z 20015KT 09/M03 A301 RMK A01 T00921025  RH  044%=      5-min Rain = 0
KGU1 180915Z 21019G25KT 09/M03 A301 RMK A01 T00911026  RH  044%=      5-min Rain = 0
KGU1 180916Z 20016G21KT 09/M03 A301 RMK A01 T00931026  RH  043%=      5-min Rain = 0
KGU1 180917Z 21019KT 09/M03 A301 RMK A01 T00921025  RH  044%=      5-min Rain = 0
KGU1 180918Z 20020KT 09/M02 A301 RMK A01 T00921024  RH  044%=      5-min Rain = 0
KGU1 180919Z 20019KT 09/M02 A301 RMK A01 T00911024  RH  044%=      5-min Rain = 0
KGU1 180920Z 20016G24KT 09/M02 A301 RMK A01 T00891023  RH  045%=      5-min Rain = 0
KGU1 180921Z 20016G21KT 09/M02 A301 RMK A01 T00881023  RH  046%=      5-min Rain = 0
KGU1 180922Z 20018KT 09/M02 A301 RMK A01 T00861023  RH  046%=      5-min Rain = 0
KGU1 180923Z 20019KT 09/M02 A301 RMK A01 T00851023  RH  047%=      5-min Rain = 0
KGU1 180924Z 20017KT 08/M02 A301 RMK A01 T00841023  RH  047%=      5-min Rain = 0
KGU1 180925Z 20018KT 09/M02 A301 RMK A01 T00851023  RH  047%=      5-min Rain = 0
KGU1 180926Z 20012KT 09/M02 A301 RMK A01 T00861023  RH  047%=      5-min Rain = 0
KGU1 180927Z 19015KT 09/M02 A301 RMK A01 T00861024  RH  046%=      5-min Rain = 0
KGU1 180928Z 20018KT 09/M02 A301 RMK A01 T00871024  RH  046%=      5-min Rain = 0
KGU1 180929Z 19019KT 09/M02 A301 RMK A01 T00871024  RH  046%=      5-min Rain = 0
KGU1 180930Z 20016KT 09/M02 A301 RMK A01 T00881024  RH  046%=      5-min Rain = 0
KGU1 180931Z 20016KT 09/M02 A301 RMK A01 T00871024  RH  046%=      5-min Rain = 0
KGU1 180932Z 20017KT 09/M02 A301 RMK A01 T00871024  RH  046%=      5-min Rain = 0
KGU1 180933Z 20014KT 09/M02 A301 RMK A01 T00881024  RH  046%=      5-min Rain = 0
KGU1 180934Z 19013G18KT 09/M02 A301 RMK A01 T00881024  RH  046%=      5-min Rain = 0
KGU1 180935Z 20014KT 09/M03 A301 RMK A01 T00881025  RH  045%=      5-min Rain = 0
KGU1 180936Z 20012KT 09/M03 A301 RMK A01 T00891026  RH  045%=      5-min Rain = 0
KGU1 180937Z 20013KT 09/M03 A301 RMK A01 T00881026  RH  045%=      5-min Rain = 0
KGU1 180938Z 20013KT 09/M03 A301 RMK A01 T00881025  RH  045%=      5-min Rain = 0
KGU1 180939Z 20017G22KT 09/M03 A301 RMK A01 T00881025  RH  045%=      5-min Rain = 0
KGU1 180940Z 19016KT 09/M03 A301 RMK A01 T00881025  RH  046%=      5-min Rain = 0
KGU1 180941Z 20013KT 09/M03 A301 RMK A01 T00871025  RH  046%=      5-min Rain = 0
KGU1 180942Z 20012KT 09/M02 A301 RMK A01 T00861024  RH  046%=      5-min Rain = 0
KGU1 180943Z 20014KT 09/M03 A301 RMK A01 T00851025  RH  046%=      5-min Rain = 0
KGU1 180944Z 20011KT 09/M03 A301 RMK A01 T00851025  RH  046%=      5-min Rain = 0
KGU1 180945Z 20012KT 08/M02 A301 RMK A01 T00841024  RH  047%=      5-min Rain = 0
KGU1 180946Z 20015G20KT 08/M02 A301 RMK A01 T00831024  RH  047%=      5-min Rain = 0
KGU1 180947Z 21014G20KT 08/M02 A301 RMK A01 T00831024  RH  047%=      5-min Rain = 0
KGU1 180948Z 20012KT 08/M03 A301 RMK A01 T00841026  RH  046%=      5-min Rain = 0
KGU1 180949Z 20014KT 09/M03 A301 RMK A01 T00851026  RH  046%=      5-min Rain = 0
KGU1 180950Z 20012KT 08/M03 A301 RMK A01 T00841025  RH  046%=      5-min Rain = 0
KGU1 180951Z 20012G17KT 08/M03 A301 RMK A01 T00841025  RH  046%=      5-min Rain = 0
KGU1 180952Z 20012KT 09/M03 A3009 RMK A01 T00851025  RH  046%=      5-min Rain = 0
KGU1 180953Z 20014G19KT 09/M03 A3009 RMK A01 T00851025  RH  046%=      5-min Rain = 0
KGU1 180954Z 20012KT 09/M03 A3009 RMK A01 T00851025  RH  046%=      5-min Rain = 0
KGU1 180955Z 20015KT 09/M03 A3009 RMK A01 T00851025  RH  046%=      5-min Rain = 0
KGU1 180956Z 20014KT 08/M03 A3009 RMK A01 T00841025  RH  046%=      5-min Rain = 0
KGU1 180957Z 20013KT 08/M03 A3009 RMK A01 T00831025  RH  047%=      5-min Rain = 0
KGU1 180958Z 20011KT 08/M03 A3009 RMK A01 T00831025  RH  047%=      5-min Rain = 0
KGU1 180959Z 20010KT 08/M03 A3009 RMK A01 T00831025  RH  047%=      5-min Rain = 0
KGU1 181000Z 21010KT 08/M03 A3009 RMK A01 T00831027  RH  046%=      5-min Rain = 0
KGU1 181001Z 20013KT 09/M03 A3009 RMK A01 T00851028  RH  045%=      5-min Rain = 0
KGU1 181002Z 20014KT 09/M03 A3009 RMK A01 T00871028  RH  045%=      5-min Rain = 0
KGU1 181003Z 20011KT 09/M03 A3009 RMK A01 T00881028  RH  044%=      5-min Rain = 0
KGU1 181004Z 21013G20KT 09/M03 A3009 RMK A01 T00881027  RH  044%=      5-min Rain = 0
KGU1 181005Z 20014KT 09/M03 A3009 RMK A01 T00861026  RH  045%=      5-min Rain = 0
KGU1 181006Z 20014KT 09/M03 A3009 RMK A01 T00861026  RH  046%=      5-min Rain = 0
KGU1 181007Z 20013KT 09/M03 A3009 RMK A01 T00851027  RH  045%=      5-min Rain = 0
KGU1 181008Z 20014KT 09/M03 A3008 RMK A01 T00861027  RH  045%=      5-min Rain = 0
KGU1 181009Z 20014KT 09/M03 A3008 RMK A01 T00861027  RH  045%=      5-min Rain = 0
KGU1 181010Z 20014KT 09/M03 A3008 RMK A01 T00861026  RH  046%=      5-min Rain = 0
KGU1 181011Z 20014G19KT 09/M03 A3008 RMK A01 T00861027  RH  045%=      5-min Rain = 0
KGU1 181012Z 20014KT 09/M03 A3008 RMK A01 T00851027  RH  046%=      5-min Rain = 0
KGU1 181013Z 19010KT 09/M03 A3008 RMK A01 T00851027  RH  046%=      5-min Rain = 0
KGU1 181014Z 20011KT 09/M03 A3008 RMK A01 T00851027  RH  045%=      5-min Rain = 0
KGU1 181015Z 20012G17KT 09/M03 A3008 RMK A01 T00861028  RH  045%=      5-min Rain = 0
KGU1 181016Z 20011KT 09/M03 A3008 RMK A01 T00871029  RH  044%=      5-min Rain = 0
KGU1 181017Z 20012G17KT 09/M03 A3008 RMK A01 T00881028  RH  044%=      5-min Rain = 0
KGU1 181018Z 19013KT 09/M03 A3008 RMK A01 T00881028  RH  044%=      5-min Rain = 0
KGU1 181019Z 20014KT 09/M03 A3008 RMK A01 T00881029  RH  044%=      5-min Rain = 0
KGU1 181020Z 20013KT 09/M03 A3008 RMK A01 T00891029  RH  044%=      5-min Rain = 0
KGU1 181021Z 20011KT 09/M03 A3008 RMK A01 T00891028  RH  044%=      5-min Rain = 0
KGU1 181022Z 21013KT 09/M03 A3008 RMK A01 T00881028  RH  044%=      5-min Rain = 0
KGU1 181023Z 20012KT 09/M03 A3008 RMK A01 T00871028  RH  045%=      5-min Rain = 0
KGU1 181024Z 20012KT 09/M03 A3008 RMK A01 T00871028  RH  044%=      5-min Rain = 0
KGU1 181025Z 19010KT 09/M03 A3008 RMK A01 T00871028  RH  045%=      5-min Rain = 0
KGU1 181026Z 20009G14KT 09/M03 A3008 RMK A01 T00871029  RH  044%=      5-min Rain = 0
KGU1 181027Z 19005KT 09/M03 A3008 RMK A01 T00871029  RH  044%=      5-min Rain = 0
KGU1 181028Z 19006G11KT 09/M03 A3008 RMK A01 T00871029  RH  044%=      5-min Rain = 0
KGU1 181029Z 19011KT 09/M03 A3008 RMK A01 T00871030  RH  044%=      5-min Rain = 0
KGU1 181030Z 20011KT 09/M03 A3008 RMK A01 T00881030  RH  044%=      5-min Rain = 0
KGU1 181031Z 20011KT 09/M03 A3008 RMK A01 T00871030  RH  044%=      5-min Rain = 0
KGU1 181032Z 20013KT 09/M03 A3008 RMK A01 T00871030  RH  044%=      5-min Rain = 0
KGU1 181033Z 20010KT 09/M03 A3008 RMK A01 T00881031  RH  043%=      5-min Rain = 0
KGU1 181034Z 19015KT 09/M03 A3008 RMK A01 T00881030  RH  043%=      5-min Rain = 0
KGU1 181035Z 20013KT 09/M03 A3007 RMK A01 T00891030  RH  043%=      5-min Rain = 0
KGU1 181036Z 21013G18KT 09/M03 A3008 RMK A01 T00891030  RH  043%=      5-min Rain = 0
KGU1 181037Z 20011KT 09/M03 A3008 RMK A01 T00891031  RH  043%=      5-min Rain = 0
KGU1 181038Z 19012KT 09/M03 A3007 RMK A01 T00881030  RH  044%=      5-min Rain = 0
KGU1 181039Z 18013KT 09/M03 A3007 RMK A01 T00881031  RH  043%=      5-min Rain = 0
KGU1 181040Z 20015G21KT 09/M03 A3007 RMK A01 T00871031  RH  044%=      5-min Rain = 0
KGU1 181041Z 20013KT 09/M03 A3007 RMK A01 T00881031  RH  043%=      5-min Rain = 0
KGU1 181042Z 20011KT 09/M03 A3008 RMK A01 T00871031  RH  043%=      5-min Rain = 0
KGU1 181043Z 19015KT 09/M03 A3007 RMK A01 T00881032  RH  043%=      5-min Rain = 0
KGU1 181044Z 18014KT 09/M03 A3007 RMK A01 T00891031  RH  043%=      5-min Rain = 0
KGU1 181045Z 18013G21KT 09/M03 A3007 RMK A01 T00881032  RH  043%=      5-min Rain = 0
KGU1 181046Z 19016KT 09/M03 A3007 RMK A01 T00891032  RH  043%=      5-min Rain = 0
KGU1 181047Z 19016KT 09/M03 A3007 RMK A01 T00891031  RH  043%=      5-min Rain = 0
KGU1 181048Z 19013KT 09/M03 A3007 RMK A01 T00881031  RH  043%=      5-min Rain = 0
KGU1 181049Z 20012KT 09/M03 A3007 RMK A01 T00861031  RH  044%=      5-min Rain = 0
KGU1 181050Z 19009KT 09/M03 A3007 RMK A01 T00871032  RH  043%=      5-min Rain = 0
KGU1 181051Z 18012KT 09/M03 A3007 RMK A01 T00871033  RH  043%=      5-min Rain = 0
KGU1 181052Z 17011KT 09/M03 A3006 RMK A01 T00901034  RH  042%=      5-min Rain = 0
KGU1 181053Z 18014KT 09/M03 A3006 RMK A01 T00901034  RH  042%=      5-min Rain = 0
KGU1 181054Z 19013KT 09/M03 A3006 RMK A01 T00881032  RH  043%=      5-min Rain = 0
KGU1 181055Z 19015KT 09/M03 A3006 RMK A01 T00871032  RH  043%=      5-min Rain = 0
KGU1 181056Z 19013G18KT 09/M03 A3006 RMK A01 T00871032  RH  043%=      5-min Rain = 0
KGU1 181057Z 19011KT 09/M03 A3007 RMK A01 T00881033  RH  043%=      5-min Rain = 0
KGU1 181058Z 19013G19KT 09/M03 A3007 RMK A01 T00891034  RH  042%=      5-min Rain = 0
KGU1 181059Z 19011G16KT 09/M04 A3007 RMK A01 T00921035  RH  041%=      5-min Rain = 0
KGU1 181100Z 19009KT 10/M04 A3007 RMK A01 T00951036  RH  040%=      5-min Rain = 0
KGU1 181101Z 19011KT 10/M04 A3007 RMK A01 T00951035  RH  040%=      5-min Rain = 0
KGU1 181102Z 19011KT 09/M03 A3007 RMK A01 T00921034  RH  041%=      5-min Rain = 0
KGU1 181103Z 20011KT 09/M04 A3007 RMK A01 T00911036  RH  041%=      5-min Rain = 0
KGU1 181104Z 18009G17KT 10/M04 A3007 RMK A01 T00961037  RH  039%=      5-min Rain = 0
KGU1 181105Z 18011G16KT 10/M04 A3007 RMK A01 T00961036  RH  039%=      5-min Rain = 0
KGU1 181106Z 18007G12KT 10/M04 A3007 RMK A01 T00951037  RH  039%=      5-min Rain = 0
KGU1 181107Z 18004KT 10/M04 A3007 RMK A01 T00951037  RH  039%=      5-min Rain = 0
KGU1 181108Z 21006KT 10/M04 A3007 RMK A01 T00951039  RH  039%=      5-min Rain = 0
KGU1 181109Z 21007KT 10/M04 A3007 RMK A01 T00961042  RH  038%=      5-min Rain = 0
KGU1 181110Z 19009KT 10/M04 A3007 RMK A01 T00991042  RH  037%=      5-min Rain = 0
KGU1 181111Z 20007KT 10/M04 A3007 RMK A01 T01001039  RH  038%=      5-min Rain = 0
KGU1 181112Z 17006KT 10/M04 A3007 RMK A01 T00991039  RH  038%=      5-min Rain = 0
KGU1 181113Z 18008KT 10/M04 A3006 RMK A01 T00961039  RH  039%=      5-min Rain = 0
KGU1 181114Z 18011KT 10/M04 A3006 RMK A01 T00971040  RH  038%=      5-min Rain = 0
KGU1 181115Z 22006KT 10/M04 A3007 RMK A01 T00981042  RH  037%=      5-min Rain = 0
KGU1 181116Z 19007KT 10/M04 A3007 RMK A01 T01001043  RH  036%=      5-min Rain = 0
KGU1 181117Z 19008KT 10/M04 A3006 RMK A01 T00991040  RH  038%=      5-min Rain = 0
KGU1 181118Z 24007KT 10/M04 A3006 RMK A01 T00971041  RH  038%=      5-min Rain = 0
KGU1 181119Z 24004KT 10/M04 A3007 RMK A01 T00971042  RH  037%=      5-min Rain = 0
KGU1 181120Z 22005KT 10/M05 A3007 RMK A01 T00981045  RH  036%=      5-min Rain = 0
KGU1 181121Z 20006KT 10/M05 A3007 RMK A01 T01011046  RH  035%=      5-min Rain = 0
KGU1 181122Z 19007KT 10/M05 A3006 RMK A01 T01031045  RH  035%=      5-min Rain = 0
KGU1 181123Z 19008G13KT 11/M05 A3006 RMK A01 T01071050  RH  033%=      5-min Rain = 0
KGU1 181124Z 17006KT 11/M05 A3007 RMK A01 T01111046  RH  033%=      5-min Rain = 0
KGU1 181125Z 16004KT 11/M04 A3007 RMK A01 T01071044  RH  035%=      5-min Rain = 0
KGU1 181126Z 19006KT 10/M05 A3007 RMK A01 T01041045  RH  035%=      5-min Rain = 0
KGU1 181127Z 22003KT 11/M05 A3007 RMK A01 T01061050  RH  033%=      5-min Rain = 0
KGU1 181128Z 24008KT 11/M05 A3007 RMK A01 T01121053  RH  031%=      5-min Rain = 0
KGU1 181129Z 21008KT 11/M05 A3007 RMK A01 T01141049  RH  032%=      5-min Rain = 0
KGU1 181130Z 19006KT 11/M05 A3007 RMK A01 T01121048  RH  032%=      5-min Rain = 0
KGU1 181131Z 20004KT 11/M05 A3007 RMK A01 T01101047  RH  033%=      5-min Rain = 0
KGU1 181132Z 15003G8KT 11/M05 A3007 RMK A01 T01101051  RH  032%=      5-min Rain = 0
KGU1 181133Z 15006KT 11/M05 A3007 RMK A01 T01111047  RH  033%=      5-min Rain = 0
KGU1 181134Z 15005KT 11/M05 A3007 RMK A01 T01081046  RH  034%=      5-min Rain = 0
KGU1 181135Z 15008KT 11/M05 A3006 RMK A01 T01061046  RH  034%=      5-min Rain = 0
KGU1 181136Z 19004G9KT 11/M05 A3007 RMK A01 T01051047  RH  034%=      5-min Rain = 0
KGU1 181137Z 18006KT 11/M05 A3007 RMK A01 T01071050  RH  033%=      5-min Rain = 0
KGU1 181138Z 24002G7KT 11/M06 A3007 RMK A01 T01121055  RH  031%=      5-min Rain = 0
KGU1 181139Z 16006KT 12/M06 A3006 RMK A01 T01181056  RH  029%=      5-min Rain = 0
KGU1 181140Z 17009KT 12/M05 A3006 RMK A01 T01211051  RH  030%=      5-min Rain = 0
KGU1 181141Z 18009KT 11/M05 A3006 RMK A01 T01141046  RH  032%=      5-min Rain = 0
KGU1 181142Z 16010KT 11/M05 A3006 RMK A01 T01081045  RH  034%=      5-min Rain = 0
KGU1 181143Z 18005KT 11/M05 A3006 RMK A01 T01051046  RH  034%=      5-min Rain = 0
KGU1 181144Z 19004KT 10/M05 A3006 RMK A01 T01041049  RH  034%=      5-min Rain = 0
KGU1 181145Z 15003KT 11/M05 A3006 RMK A01 T01071053  RH  032%=      5-min Rain = 0
KGU1 181146Z 25004KT 11/M06 A3006 RMK A01 T01111056  RH  031%=      5-min Rain = 0
KGU1 181147Z 28008KT 12/M06 A3006 RMK A01 T01171064  RH  027%=      5-min Rain = 0
KGU1 181148Z 24006KT 13/M07 A3006 RMK A01 T01261067  RH  025%=      5-min Rain = 0
KGU1 181149Z 24007G14KT 13/M06 A3006 RMK A01 T01281061  RH  026%=      5-min Rain = 0
KGU1 181150Z 25008KT 13/M07 A3006 RMK A01 T01301068  RH  024%=      5-min Rain = 0
KGU1 181151Z 23007KT 13/M06 A3006 RMK A01 T01331063  RH  025%=      5-min Rain = 0
KGU1 181152Z 20010KT 13/M06 A3006 RMK A01 T01291056  RH  027%=      5-min Rain = 0
KGU1 181153Z 21011G16KT 12/M05 A3006 RMK A01 T01231052  RH  029%=      5-min Rain = 0
KGU1 181154Z 21007KT 12/M05 A3006 RMK A01 T01161048  RH  032%=      5-min Rain = 0
KGU1 181155Z 22010KT 12/M05 A3006 RMK A01 T01161054  RH  030%=      5-min Rain = 0
KGU1 181156Z 22009KT 12/M05 A3006 RMK A01 T01151049  RH  032%=      5-min Rain = 0
KGU1 181157Z 20008KT 11/M04 A3006 RMK A01 T01081042  RH  035%=      5-min Rain = 0
KGU1 181158Z 20009KT 10/M04 A3006 RMK A01 T01021043  RH  036%=      5-min Rain = 0
KGU1 181159Z 26011KT 11/M06 A3006 RMK A01 T01061056  RH  032%=      5-min Rain = 0
KGU1 181200Z 23010KT 12/M06 A3006 RMK A01 T01241064  RH  026%=      5-min Rain = 0
KGU1 181201Z 21011KT 12/M05 A3006 RMK A01 T01211049  RH  030%=      5-min Rain = 0
KGU1 181202Z 22009KT 11/M05 A3006 RMK A01 T01141050  RH  031%=      5-min Rain = 0
KGU1 181203Z 25005G12KT 12/M05 A3006 RMK A01 T01161052  RH  030%=      5-min Rain = 0
KGU1 181204Z 23006KT 12/M06 A3006 RMK A01 T01171058  RH  029%=      5-min Rain = 0
KGU1 181205Z 27008G13KT 12/M06 A3006 RMK A01 T01211060  RH  028%=      5-min Rain = 0
KGU1 181206Z 21004G10KT 13/M06 A3006 RMK A01 T01291064  RH  026%=      5-min Rain = 0
KGU1 181207Z 32003KT 13/M05 A3006 RMK A01 T01261053  RH  028%=      5-min Rain = 0
KGU1 181208Z 30009G15KT 13/M07 A3006 RMK A01 T01271068  RH  025%=      5-min Rain = 0
KGU1 181209Z 27009KT 14/M07 A3007 RMK A01 T01371074  RH  022%=      5-min Rain = 0
KGU1 181210Z 29009KT 14/M08 A3007 RMK A01 T01431075  RH  021%=      5-min Rain = 0
KGU1 181211Z 29010KT 15/M08 A3006 RMK A01 T01471075  RH  021%=      5-min Rain = 0
KGU1 181212Z 29010KT 15/M08 A3006 RMK A01 T01481075  RH  021%=      5-min Rain = 0
KGU1 181213Z 27010KT 15/M08 A3006 RMK A01 T01491075  RH  021%=      5-min Rain = 0
KGU1 181214Z 23011KT 15/M07 A3006 RMK A01 T01481068  RH  022%=      5-min Rain = 0
KGU1 181215Z 21007KT 13/M05 A3007 RMK A01 T01321048  RH  028%=      5-min Rain = 0
KGU1 181216Z 21006KT 12/M05 A3006 RMK A01 T01181048  RH  031%=      5-min Rain = 0
KGU1 181217Z 26010G16KT 11/M06 A3006 RMK A01 T01141056  RH  030%=      5-min Rain = 0
KGU1 181218Z 28014KT 13/M07 A3006 RMK A01 T01251071  RH  025%=      5-min Rain = 0
KGU1 181219Z 27014G19KT 14/M08 A3006 RMK A01 T01401076  RH  022%=      5-min Rain = 0
KGU1 181220Z 27015G20KT 15/M08 A3006 RMK A01 T01491077  RH  020%=      5-min Rain = 0
KGU1 181221Z 25013KT 15/M07 A3006 RMK A01 T01521074  RH  020%=      5-min Rain = 0
KGU1 181222Z 27011KT 15/M07 A3006 RMK A01 T01491073  RH  021%=      5-min Rain = 0
KGU1 181223Z 29018G24KT 15/M08 A3006 RMK A01 T01521077  RH  020%=      5-min Rain = 0
KGU1 181224Z 28014KT 16/M08 A3006 RMK A01 T01561078  RH  019%=      5-min Rain = 0
KGU1 181225Z 28015KT 16/M08 A3006 RMK A01 T01571079  RH  019%=      5-min Rain = 0
KGU1 181226Z 29012KT 16/M08 A3006 RMK A01 T01571078  RH  019%=      5-min Rain = 0
KGU1 181227Z 30013G19KT 16/M08 A3006 RMK A01 T01561078  RH  019%=      5-min Rain = 0
KGU1 181228Z 29013KT 16/M08 A3006 RMK A01 T01561079  RH  019%=      5-min Rain = 0
KGU1 181229Z 29012G18KT 16/M08 A3006 RMK A01 T01551079  RH  019%=      5-min Rain = 0
KGU1 181230Z 30013KT 16/M08 A3006 RMK A01 T01551078  RH  019%=      5-min Rain = 0
KGU1 181231Z 29017G23KT 16/M08 A3006 RMK A01 T01561078  RH  019%=      5-min Rain = 0
KGU1 181232Z 30019G26KT 16/M08 A3006 RMK A01 T01581078  RH  019%=      5-min Rain = 0
KGU1 181233Z 30018KT 16/M08 A3006 RMK A01 T01581078  RH  019%=      5-min Rain = 0
KGU1 181234Z 29018G23KT 16/M08 A3006 RMK A01 T01591078  RH  019%=      5-min Rain = 0
KGU1 181235Z 30018KT 16/M08 A3006 RMK A01 T01591078  RH  019%=      5-min Rain = 0
KGU1 181236Z 30012KT 16/M08 A3006 RMK A01 T01591079  RH  019%=      5-min Rain = 0
KGU1 181237Z 30016KT 16/M08 A3006 RMK A01 T01581078  RH  019%=      5-min Rain = 0
KGU1 181238Z 30018G26KT 16/M08 A3006 RMK A01 T01581078  RH  019%=      5-min Rain = 0
KGU1 181239Z 31013G18KT 16/M08 A3006 RMK A01 T01591078  RH  019%=      5-min Rain = 0
KGU1 181240Z 31014G22KT 16/M08 A3006 RMK A01 T01571078  RH  019%=      5-min Rain = 0
KGU1 181241Z 30023G29KT 16/M08 A3006 RMK A01 T01581078  RH  019%=      5-min Rain = 0
KGU1 181242Z 30021G27KT 16/M08 A3006 RMK A01 T01591077  RH  019%=      5-min Rain = 0
KGU1 181243Z 30015KT 16/M08 A3006 RMK A01 T01581076  RH  019%=      5-min Rain = 0
KGU1 181244Z 32019G26KT 16/M08 A3007 RMK A01 T01561076  RH  019%=      5-min Rain = 0
KGU1 181245Z 30014KT 16/M08 A3006 RMK A01 T01561076  RH  019%=      5-min Rain = 0
KGU1 181246Z 30021G26KT 16/M08 A3007 RMK A01 T01561076  RH  019%=      5-min Rain = 0
KGU1 181247Z 31021KT 16/M08 A3007 RMK A01 T01591077  RH  019%=      5-min Rain = 0
KGU1 181248Z 31020KT 16/M08 A3007 RMK A01 T01591077  RH  019%=      5-min Rain = 0
KGU1 181249Z 31020G25KT 16/M08 A3007 RMK A01 T01581077  RH  019%=      5-min Rain = 0
KGU1 181250Z 31020G25KT 16/M08 A3007 RMK A01 T01581076  RH  019%=      5-min Rain = 0
KGU1 181251Z 30020G25KT 16/M08 A3007 RMK A01 T01581076  RH  019%=      5-min Rain = 0
KGU1 181252Z 30017G22KT 16/M08 A3007 RMK A01 T01571076  RH  019%=      5-min Rain = 0
KGU1 181253Z 30017KT 16/M08 A3007 RMK A01 T01561076  RH  019%=      5-min Rain = 0
KGU1 181254Z 30020KT 16/M08 A3007 RMK A01 T01551076  RH  020%=      5-min Rain = 0
KGU1 181255Z 31015KT 16/M08 A3007 RMK A01 T01551076  RH  020%=      5-min Rain = 0
KGU1 181256Z 31013G18KT 15/M08 A3007 RMK A01 T01541076  RH  020%=      5-min Rain = 0
KGU1 181257Z 30017G23KT 16/M08 A3007 RMK A01 T01551077  RH  020%=      5-min Rain = 0
KGU1 181258Z 30015G20KT 16/M08 A3007 RMK A01 T01561076  RH  020%=      5-min Rain = 0
KGU1 181259Z 30016KT 16/M08 A3007 RMK A01 T01561077  RH  019%=      5-min Rain = 0
KGU1 181300Z 30018KT 16/M08 A3007 RMK A01 T01561077  RH  019%=      5-min Rain = 0
KGU1 181301Z 30018KT 16/M08 A3007 RMK A01 T01571078  RH  019%=      5-min Rain = 0
KGU1 181302Z 30015KT 16/M08 A3007 RMK A01 T01591078  RH  019%=      5-min Rain = 0
KGU1 181303Z 30020KT 16/M08 A3007 RMK A01 T01591078  RH  019%=      5-min Rain = 0
KGU1 181304Z 29018G23KT 16/M08 A3007 RMK A01 T01591078  RH  019%=      5-min Rain = 0
KGU1 181305Z 30017G22KT 16/M08 A3007 RMK A01 T01601079  RH  019%=      5-min Rain = 0
KGU1 181306Z 30017KT 16/M08 A3007 RMK A01 T01601078  RH  019%=      5-min Rain = 0
KGU1 181307Z 30013G19KT 16/M08 A3008 RMK A01 T01601078  RH  019%=      5-min Rain = 0
KGU1 181308Z 30017G23KT 16/M08 A3008 RMK A01 T01621078  RH  018%=      5-min Rain = 0
KGU1 181309Z 30016KT 16/M08 A3008 RMK A01 T01621079  RH  018%=      5-min Rain = 0
KGU1 181310Z 30016KT 16/M08 A3008 RMK A01 T01611079  RH  019%=      5-min Rain = 0
KGU1 181311Z 31014KT 16/M08 A3008 RMK A01 T01601078  RH  019%=      5-min Rain = 0
KGU1 181312Z 30013G18KT 16/M08 A3008 RMK A01 T01601079  RH  019%=      5-min Rain = 0
KGU1 181313Z 31016G22KT 16/M08 A3008 RMK A01 T01601078  RH  019%=      5-min Rain = 0
KGU1 181314Z 29016KT 16/M08 A3008 RMK A01 T01631079  RH  018%=      5-min Rain = 0
KGU1 181315Z 31017G23KT 16/M08 A3008 RMK A01 T01641079  RH  018%=      5-min Rain = 0
KGU1 181316Z 30014G21KT 17/M08 A3008 RMK A01 T01651079  RH  018%=      5-min Rain = 0
KGU1 181317Z 30016G22KT 17/M08 A3008 RMK A01 T01651080  RH  018%=      5-min Rain = 0
KGU1 181318Z 30015KT 17/M08 A3008 RMK A01 T01651079  RH  018%=      5-min Rain = 0
KGU1 181319Z 30014KT 17/M08 A3008 RMK A01 T01651079  RH  018%=      5-min Rain = 0
KGU1 181320Z 30013G21KT 16/M08 A3008 RMK A01 T01631079  RH  018%=      5-min Rain = 0
KGU1 181321Z 30018KT 16/M08 A3008 RMK A01 T01641080  RH  018%=      5-min Rain = 0
KGU1 181322Z 29019G26KT 17/M08 A3008 RMK A01 T01651080  RH  018%=      5-min Rain = 0
KGU1 181323Z 30017G25KT 17/M08 A3008 RMK A01 T01661079  RH  018%=      5-min Rain = 0
KGU1 181324Z 30016G21KT 17/M08 A3008 RMK A01 T01661080  RH  018%=      5-min Rain = 0
KGU1 181325Z 30018G23KT 17/M08 A3008 RMK A01 T01661081  RH  018%=      5-min Rain = 0
KGU1 181326Z 31017KT 17/M08 A3009 RMK A01 T01671080  RH  018%=      5-min Rain = 0
KGU1 181327Z 30017G22KT 17/M08 A3008 RMK A01 T01651080  RH  018%=      5-min Rain = 0
KGU1 181328Z 30019KT 16/M08 A3009 RMK A01 T01641080  RH  018%=      5-min Rain = 0
KGU1 181329Z 30019KT 16/M08 A3009 RMK A01 T01641079  RH  018%=      5-min Rain = 0
KGU1 181330Z 30016KT 16/M08 A3009 RMK A01 T01621079  RH  018%=      5-min Rain = 0
KGU1 181331Z 30015KT 16/M08 A3009 RMK A01 T01601078  RH  019%=      5-min Rain = 0
KGU1 181332Z 30019G25KT 16/M08 A3009 RMK A01 T01601079  RH  019%=      5-min Rain = 0
KGU1 181333Z 29020KT 16/M08 A3009 RMK A01 T01621078  RH  018%=      5-min Rain = 0
KGU1 181334Z 30017KT 16/M08 A3009 RMK A01 T01621078  RH  018%=      5-min Rain = 0
KGU1 181335Z 30011KT 16/M08 A3009 RMK A01 T01621078  RH  019%=      5-min Rain = 0
KGU1 181336Z 30014KT 16/M08 A3009 RMK A01 T01601078  RH  019%=      5-min Rain = 0
KGU1 181337Z 30012KT 16/M08 A3009 RMK A01 T01591077  RH  019%=      5-min Rain = 0
KGU1 181338Z 29012KT 16/M08 A3009 RMK A01 T01571077  RH  019%=      5-min Rain = 0
KGU1 181339Z 30013G19KT 16/M08 A3009 RMK A01 T01571077  RH  019%=      5-min Rain = 0
KGU1 181340Z 30012KT 16/M08 A3009 RMK A01 T01601077  RH  019%=      5-min Rain = 0
KGU1 181341Z 29017KT 16/M08 A3009 RMK A01 T01611077  RH  019%=      5-min Rain = 0
KGU1 181342Z 30016G21KT 16/M08 A3009 RMK A01 T01611076  RH  019%=      5-min Rain = 0
KGU1 181343Z 30017KT 16/M08 A3009 RMK A01 T01621076  RH  019%=      5-min Rain = 0
KGU1 181344Z 29017KT 16/M08 A3009 RMK A01 T01631076  RH  019%=      5-min Rain = 0
KGU1 181345Z 29019KT 16/M08 A3009 RMK A01 T01631075  RH  019%=      5-min Rain = 0
KGU1 181346Z 29014KT 16/M08 A3009 RMK A01 T01641076  RH  019%=      5-min Rain = 0
KGU1 181347Z 29015G20KT 16/M08 A3009 RMK A01 T01641075  RH  019%=      5-min Rain = 0
KGU1 181348Z 28017G24KT 16/M08 A3009 RMK A01 T01641076  RH  019%=      5-min Rain = 0
KGU1 181349Z 29017KT 17/M08 A3009 RMK A01 T01661075  RH  018%=      5-min Rain = 0
KGU1 181350Z 29015G21KT 17/M08 A3009 RMK A01 T01671075  RH  018%=      5-min Rain = 0
KGU1 181351Z 29019G24KT 17/M08 A3009 RMK A01 T01661075  RH  018%=      5-min Rain = 0
KGU1 181352Z 30014KT 17/M07 A3009 RMK A01 T01671074  RH  018%=      5-min Rain = 0
KGU1 181353Z 29012KT 17/M08 A3009 RMK A01 T01671075  RH  018%=      5-min Rain = 0
KGU1 181354Z 29016KT 17/M07 A3009 RMK A01 T01661074  RH  019%=      5-min Rain = 0
KGU1 181355Z 29020KT 17/M07 A3009 RMK A01 T01671074  RH  019%=      5-min Rain = 0
KGU1 181356Z 30018KT 17/M07 A3009 RMK A01 T01671073  RH  019%=      5-min Rain = 0
KGU1 181357Z 29018G23KT 17/M07 A3009 RMK A01 T01671074  RH  018%=      5-min Rain = 0
KGU1 181358Z 29021KT 17/M07 A3009 RMK A01 T01681074  RH  018%=      5-min Rain = 0
KGU1 181359Z 29018KT 17/M08 A3009 RMK A01 T01691075  RH  018%=      5-min Rain = 0
KGU1 181400Z 29015KT 17/M08 A3009 RMK A01 T01691075  RH  018%=      5-min Rain = 0
KGU1 181401Z 31014G21KT 17/M07 A3009 RMK A01 T01691074  RH  018%=      5-min Rain = 0
KGU1 181402Z 28016G21KT 17/M07 A3009 RMK A01 T01701074  RH  018%=      5-min Rain = 0
KGU1 181403Z 28019G25KT 17/M07 A3009 RMK A01 T01691074  RH  018%=      5-min Rain = 0
KGU1 181404Z 29018G25KT 17/M07 A3009 RMK A01 T01701073  RH  018%=      5-min Rain = 0
KGU1 181405Z 30018KT 17/M07 A3009 RMK A01 T01711073  RH  018%=      5-min Rain = 0
KGU1 181406Z 29020G25KT 17/M07 A3009 RMK A01 T01691073  RH  018%=      5-min Rain = 0
KGU1 181407Z 29018G24KT 17/M07 A3009 RMK A01 T01681073  RH  018%=      5-min Rain = 0
KGU1 181408Z 28018G24KT 17/M07 A3009 RMK A01 T01681073  RH  019%=      5-min Rain = 0
KGU1 181409Z 29021G26KT 17/M07 A3009 RMK A01 T01681073  RH  019%=      5-min Rain = 0
KGU1 181410Z 29022G31KT 17/M07 A3009 RMK A01 T01681073  RH  018%=      5-min Rain = 0
KGU1 181411Z 29018KT 17/M07 A301 RMK A01 T01691073  RH  018%=      5-min Rain = 0
KGU1 181412Z 30018G26KT 17/M07 A301 RMK A01 T01681073  RH  018%=      5-min Rain = 0
KGU1 181413Z 29018KT 17/M07 A301 RMK A01 T01691073  RH  018%=      5-min Rain = 0
KGU1 181414Z 29019G26KT 17/M07 A301 RMK A01 T01681072  RH  019%=      5-min Rain = 0
KGU1 181415Z 29016G26KT 17/M07 A3009 RMK A01 T01681072  RH  019%=      5-min Rain = 0
KGU1 181416Z 29020G25KT 17/M07 A3009 RMK A01 T01681072  RH  019%=      5-min Rain = 0
KGU1 181417Z 29015G25KT 17/M07 A3009 RMK A01 T01691073  RH  018%=      5-min Rain = 0
KGU1 181418Z 29015G20KT 17/M07 A3009 RMK A01 T01711073  RH  018%=      5-min Rain = 0
KGU1 181419Z 30017KT 17/M07 A3009 RMK A01 T01711072  RH  018%=      5-min Rain = 0
KGU1 181420Z 29014G21KT 17/M07 A3009 RMK A01 T01711073  RH  018%=      5-min Rain = 0
KGU1 181421Z 30017KT 17/M07 A3009 RMK A01 T01711072  RH  018%=      5-min Rain = 0
KGU1 181422Z 29021G27KT 17/M07 A3009 RMK A01 T01711072  RH  018%=      5-min Rain = 0
KGU1 181423Z 29017G23KT 17/M07 A3009 RMK A01 T01701072  RH  018%=      5-min Rain = 0
KGU1 181424Z 29019G24KT 17/M07 A3009 RMK A01 T01711073  RH  018%=      5-min Rain = 0
KGU1 181425Z 29021G28KT 17/M07 A3009 RMK A01 T01721073  RH  018%=      5-min Rain = 0
KGU1 181426Z 29017KT 17/M07 A3009 RMK A01 T01731073  RH  018%=      5-min Rain = 0
KGU1 181427Z 30015KT 17/M07 A3009 RMK A01 T01741072  RH  018%=      5-min Rain = 0
KGU1 181428Z 30013KT 17/M07 A3009 RMK A01 T01741071  RH  018%=      5-min Rain = 0
KGU1 181429Z 29013KT 18/M07 A3009 RMK A01 T01751070  RH  018%=      5-min Rain = 0
KGU1 181430Z 29016G21KT 18/M07 A3009 RMK A01 T01761069  RH  018%=      5-min Rain = 0
KGU1 181431Z 29016KT 18/M07 A3009 RMK A01 T01781071  RH  018%=      5-min Rain = 0
KGU1 181432Z 29016G24KT 18/M07 A3009 RMK A01 T01791070  RH  018%=      5-min Rain = 0
KGU1 181433Z 28014KT 18/M07 A3009 RMK A01 T01791069  RH  018%=      5-min Rain = 0
KGU1 181434Z 29020G27KT 18/M07 A3009 RMK A01 T01791070  RH  018%=      5-min Rain = 0
KGU1 181435Z 29012KT 18/M07 A3009 RMK A01 T01811071  RH  017%=      5-min Rain = 0
KGU1 181436Z 30014KT 18/M07 A3009 RMK A01 T01821070  RH  017%=      5-min Rain = 0
KGU1 181437Z 28012G17KT 18/M07 A3009 RMK A01 T01831068  RH  018%=      5-min Rain = 0
KGU1 181438Z 30015G21KT 18/M07 A3009 RMK A01 T01831069  RH  017%=      5-min Rain = 0
KGU1 181439Z 30014G19KT 18/M07 A3009 RMK A01 T01831068  RH  017%=      5-min Rain = 0
KGU1 181440Z 28018G23KT 18/M07 A3009 RMK A01 T01831068  RH  017%=      5-min Rain = 0
KGU1 181441Z 28017KT 18/M07 A3009 RMK A01 T01821068  RH  018%=      5-min Rain = 0
KGU1 181442Z 27016G21KT 18/M07 A3009 RMK A01 T01821068  RH  018%=      5-min Rain = 0
KGU1 181443Z 28012G17KT 18/M07 A3009 RMK A01 T01821067  RH  018%=      5-min Rain = 0
KGU1 181444Z 29012KT 18/M07 A3009 RMK A01 T01831067  RH  018%=      5-min Rain = 0
KGU1 181445Z 29014G22KT 18/M07 A3009 RMK A01 T01831067  RH  018%=      5-min Rain = 0
KGU1 181446Z 29016G24KT 18/M07 A3009 RMK A01 T01831067  RH  018%=      5-min Rain = 0
KGU1 181447Z 29012KT 18/M07 A3009 RMK A01 T01831067  RH  018%=      5-min Rain = 0
KGU1 181448Z 28013G18KT 18/M07 A3009 RMK A01 T01831067  RH  018%=      5-min Rain = 0
KGU1 181449Z 29012KT 18/M07 A3009 RMK A01 T01841066  RH  018%=      5-min Rain = 0
KGU1 181450Z 29013KT 19/M07 A3009 RMK A01 T01851067  RH  018%=      5-min Rain = 0
KGU1 181451Z 29012KT 19/M07 A3009 RMK A01 T01851066  RH  018%=      5-min Rain = 0
KGU1 181452Z 29009KT 19/M07 A3009 RMK A01 T01851066  RH  018%=      5-min Rain = 0
KGU1 181453Z 29010KT 19/M07 A3009 RMK A01 T01861066  RH  018%=      5-min Rain = 0
KGU1 181454Z 30007G16KT 19/M07 A3009 RMK A01 T01861067  RH  017%=      5-min Rain = 0
KGU1 181455Z 28011G16KT 19/M07 A3009 RMK A01 T01861066  RH  017%=      5-min Rain = 0
KGU1 181456Z 27013KT 19/M06 A3009 RMK A01 T01871064  RH  018%=      5-min Rain = 0
KGU1 181457Z 29009G14KT 19/M07 A3009 RMK A01 T01871065  RH  017%=      5-min Rain = 0
KGU1 181458Z 29009KT 19/M07 A3009 RMK A01 T01871065  RH  018%=      5-min Rain = 0
KGU1 181459Z 28008KT 19/M06 A3009 RMK A01 T01881061  RH  018%=      5-min Rain = 0
KGU1 181500Z 28013KT 19/M06 A3009 RMK A01 T01891061  RH  018%=      5-min Rain = 0
KGU1 181501Z 29013G18KT 19/M06 A3009 RMK A01 T01881061  RH  018%=      5-min Rain = 0
KGU1 181502Z 29008KT 19/M06 A3009 RMK A01 T01881063  RH  018%=      5-min Rain = 0
KGU1 181503Z 29014G21KT 19/M06 A301 RMK A01 T01881061  RH  018%=      5-min Rain = 0
KGU1 181504Z 28012G17KT 19/M06 A301 RMK A01 T01881064  RH  018%=      5-min Rain = 0
KGU1 181505Z 28011KT 19/M06 A3009 RMK A01 T01881062  RH  018%=      5-min Rain = 0
KGU1 181506Z 30009KT 19/M06 A301 RMK A01 T01881063  RH  018%=      5-min Rain = 0
KGU1 181507Z 30007KT 19/M07 A301 RMK A01 T01881065  RH  017%=      5-min Rain = 0
KGU1 181508Z 29008KT 19/M06 A301 RMK A01 T01881063  RH  018%=      5-min Rain = 0
KGU1 181509Z 28007G12KT 19/M06 A301 RMK A01 T01901063  RH  017%=      5-min Rain = 0
KGU1 181510Z 29010KT 19/M07 A301 RMK A01 T01901065  RH  017%=      5-min Rain = 0
KGU1 181511Z 30007KT 19/M06 A301 RMK A01 T01891064  RH  017%=      5-min Rain = 0
KGU1 181512Z 28005KT 19/M06 A301 RMK A01 T01901063  RH  017%=      5-min Rain = 0
KGU1 181513Z 26009KT 19/M06 A301 RMK A01 T01901064  RH  017%=      5-min Rain = 0
KGU1 181514Z 28010KT 19/M06 A301 RMK A01 T01901064  RH  017%=      5-min Rain = 0
KGU1 181515Z 27008KT 19/M07 A301 RMK A01 T01901065  RH  017%=      5-min Rain = 0
KGU1 181516Z 28005KT 19/M06 A301 RMK A01 T01911061  RH  018%=      5-min Rain = 0
KGU1 181517Z 28008KT 19/M07 A301 RMK A01 T01911065  RH  017%=      5-min Rain = 0
KGU1 181518Z 27007KT 19/M06 A301 RMK A01 T01911064  RH  017%=      5-min Rain = 0
KGU1 181519Z 27010G15KT 19/M07 A301 RMK A01 T01901066  RH  017%=      5-min Rain = 0
KGU1 181520Z 25012KT 19/M07 A301 RMK A01 T01891067  RH  017%=      5-min Rain = 0
KGU1 181521Z 23012G20KT 19/M06 A301 RMK A01 T01861062  RH  018%=      5-min Rain = 0
KGU1 181522Z 23011G19KT 18/M05 A301 RMK A01 T01771052  RH  021%=      5-min Rain = 0
KGU1 181523Z 21014KT 16/M05 A301 RMK A01 T01631045  RH  024%=      5-min Rain = 0
KGU1 181524Z 20016KT 15/M04 A301 RMK A01 T01461041  RH  027%=      5-min Rain = 0
KGU1 181525Z 20017KT 13/M04 A301 RMK A01 T01331038  RH  030%=      5-min Rain = 0
KGU1 181526Z 20015G20KT 13/M04 A301 RMK A01 T01251037  RH  032%=      5-min Rain = 0
KGU1 181527Z 21015G20KT 12/M04 A301 RMK A01 T01221036  RH  033%=      5-min Rain = 0
KGU1 181528Z 20017KT 12/M04 A301 RMK A01 T01201035  RH  034%=      5-min Rain = 0
KGU1 181529Z 21012KT 12/M04 A301 RMK A01 T01191038  RH  033%=      5-min Rain = 0
KGU1 181530Z 20015KT 12/M04 A301 RMK A01 T01241038  RH  032%=      5-min Rain = 0
KGU1 181531Z 20017KT 12/M04 A301 RMK A01 T01221036  RH  033%=      5-min Rain = 0
KGU1 181532Z 20018KT 12/M04 A301 RMK A01 T01211038  RH  033%=      5-min Rain = 0
KGU1 181533Z 20015KT 12/M04 A301 RMK A01 T01201036  RH  033%=      5-min Rain = 0
KGU1 181534Z 21013KT 12/M04 A301 RMK A01 T01231038  RH  033%=      5-min Rain = 0
KGU1 181535Z 20012KT 13/M04 A301 RMK A01 T01251037  RH  032%=      5-min Rain = 0
KGU1 181536Z 20014G19KT 13/M05 A301 RMK A01 T01321046  RH  029%=      5-min Rain = 0
KGU1 181537Z 20015KT 14/M04 A301 RMK A01 T01371039  RH  029%=      5-min Rain = 0
KGU1 181538Z 21015KT 13/M04 A301 RMK A01 T01321038  RH  031%=      5-min Rain = 0
KGU1 181539Z 21016KT 13/M04 A301 RMK A01 T01341039  RH  030%=      5-min Rain = 0
KGU1 181540Z 21015G20KT 14/M04 A301 RMK A01 T01361041  RH  029%=      5-min Rain = 0
KGU1 181541Z 20011G16KT 13/M04 A3011 RMK A01 T01341040  RH  030%=      5-min Rain = 0
KGU1 181542Z 21015G20KT 13/M03 A3011 RMK A01 T01301034  RH  032%=      5-min Rain = 0
KGU1 181543Z 20013KT 12/M03 A3011 RMK A01 T01231033  RH  034%=      5-min Rain = 0
KGU1 181544Z 21015KT 12/M03 A3011 RMK A01 T01211033  RH  034%=      5-min Rain = 0
KGU1 181545Z 21012KT 12/M03 A3011 RMK A01 T01211033  RH  034%=      5-min Rain = 0
KGU1 181546Z 21011G19KT 12/M04 A3011 RMK A01 T01231035  RH  033%=      5-min Rain = 0
KGU1 181547Z 21018KT 13/M03 A3011 RMK A01 T01261034  RH  033%=      5-min Rain = 0
KGU1 181548Z 20016KT 12/M03 A3011 RMK A01 T01211033  RH  034%=      5-min Rain = 0
KGU1 181549Z 21010KT 12/M03 A3011 RMK A01 T01201034  RH  034%=      5-min Rain = 0
KGU1 181550Z 21011G16KT 13/M03 A3011 RMK A01 T01261033  RH  033%=      5-min Rain = 0
KGU1 181551Z 25007KT 13/M05 A3011 RMK A01 T01331050  RH  028%=      5-min Rain = 0
KGU1 181552Z 21013G20KT 15/M05 A3011 RMK A01 T01491048  RH  026%=      5-min Rain = 0
KGU1 181553Z 21013KT 14/M03 A3011 RMK A01 T01411034  RH  030%=      5-min Rain = 0
KGU1 181554Z 23010KT 14/M04 A3011 RMK A01 T01371038  RH  030%=      5-min Rain = 0
KGU1 181555Z 21010KT 15/M04 A3012 RMK A01 T01451043  RH  027%=      5-min Rain = 0
KGU1 181556Z 21013KT 15/M04 A3011 RMK A01 T01461038  RH  028%=      5-min Rain = 0
KGU1 181557Z 22012KT 14/M04 A3012 RMK A01 T01441038  RH  028%=      5-min Rain = 0
KGU1 181558Z 21011KT 14/M04 A3012 RMK A01 T01431037  RH  029%=      5-min Rain = 0
KGU1 181559Z 23011KT 15/M05 A3012 RMK A01 T01451045  RH  027%=      5-min Rain = 0
KGU1 181600Z 23008KT 16/M05 A3012 RMK A01 T01551052  RH  024%=      5-min Rain = 0
KGU1 181601Z 22005KT 16/M06 A3012 RMK A01 T01611059  RH  022%=      5-min Rain = 0
KGU1 181602Z 22007KT 17/M06 A3011 RMK A01 T01711063  RH  020%=      5-min Rain = 0
KGU1 181603Z 25008G13KT 18/M06 A3011 RMK A01 T01791063  RH  019%=      5-min Rain = 0
KGU1 181604Z 27009KT 18/M06 A3012 RMK A01 T01841064  RH  018%=      5-min Rain = 0
KGU1 181605Z 24011KT 19/M06 A3012 RMK A01 T01851057  RH  019%=      5-min Rain = 0
KGU1 181606Z 22009KT 17/M04 A3012 RMK A01 T01731038  RH  024%=      5-min Rain = 0
KGU1 181607Z 22008KT 16/M04 A3012 RMK A01 T01631038  RH  025%=      5-min Rain = 0
KGU1 181608Z 24007KT 16/M04 A3012 RMK A01 T01601042  RH  025%=      5-min Rain = 0
KGU1 181609Z 26010KT 17/M06 A3012 RMK A01 T01671055  RH  021%=      5-min Rain = 0
KGU1 181610Z 26008KT 18/M07 A3012 RMK A01 T01761069  RH  018%=      5-min Rain = 0
KGU1 181611Z 27011G17KT 18/M07 A3012 RMK A01 T01831066  RH  018%=      5-min Rain = 0
KGU1 181612Z 28012KT 19/M07 A3012 RMK A01 T01881068  RH  017%=      5-min Rain = 0
KGU1 181613Z 24010KT 19/M06 A3012 RMK A01 T01891063  RH  018%=      5-min Rain = 0
KGU1 181614Z 25007KT 18/M05 A3012 RMK A01 T01821046  RH  021%=      5-min Rain = 0
KGU1 181615Z 22006KT 18/M04 A3012 RMK A01 T01761042  RH  022%=      5-min Rain = 0
KGU1 181616Z 22010KT 17/M04 A3011 RMK A01 T01721039  RH  024%=      5-min Rain = 0
KGU1 181617Z 26010G15KT 17/M06 A3011 RMK A01 T01741056  RH  020%=      5-min Rain = 0
KGU1 181618Z 27011KT 18/M07 A3011 RMK A01 T01821066  RH  018%=      5-min Rain = 0
KGU1 181619Z 27011KT 19/M07 A3011 RMK A01 T01881068  RH  017%=      5-min Rain = 0
KGU1 181620Z 27014KT 19/M07 A3011 RMK A01 T01921068  RH  017%=      5-min Rain = 0
KGU1 181621Z 28014KT 19/M07 A3011 RMK A01 T01941068  RH  016%=      5-min Rain = 0
KGU1 181622Z 28012KT 20/M07 A3011 RMK A01 T01951067  RH  016%=      5-min Rain = 0
KGU1 181623Z 28014KT 20/M07 A3011 RMK A01 T01961067  RH  016%=      5-min Rain = 0
KGU1 181624Z 28013G20KT 20/M07 A3011 RMK A01 T01961067  RH  016%=      5-min Rain = 0
KGU1 181625Z 28015KT 20/M07 A3011 RMK A01 T01971068  RH  016%=      5-min Rain = 0
KGU1 181626Z 27016KT 20/M07 A3011 RMK A01 T01951068  RH  016%=      5-min Rain = 0
KGU1 181627Z 28016KT 20/M07 A3011 RMK A01 T01951066  RH  016%=      5-min Rain = 0
KGU1 181628Z 28012G17KT 20/M07 A3011 RMK A01 T01951066  RH  017%=      5-min Rain = 0
KGU1 181629Z 28013G18KT 20/M07 A3011 RMK A01 T01951065  RH  017%=      5-min Rain = 0
KGU1 181630Z 29015KT 20/M07 A3011 RMK A01 T01961065  RH  017%=      5-min Rain = 0
KGU1 181631Z 30014G19KT 20/M07 A3011 RMK A01 T01961065  RH  016%=      5-min Rain = 0
KGU1 181632Z 29018KT 20/M07 A3011 RMK A01 T01951066  RH  016%=      5-min Rain = 0
KGU1 181633Z 29018KT 19/M07 A3011 RMK A01 T01941066  RH  017%=      5-min Rain = 0
KGU1 181634Z 30015KT 20/M07 A3011 RMK A01 T01951065  RH  017%=      5-min Rain = 0
KGU1 181635Z 30014KT 20/M06 A3011 RMK A01 T01951064  RH  017%=      5-min Rain = 0
KGU1 181636Z 29015KT 20/M06 A3011 RMK A01 T01951063  RH  017%=      5-min Rain = 0
KGU1 181637Z 29014KT 20/M06 A3011 RMK A01 T01971062  RH  017%=      5-min Rain = 0
KGU1 181638Z 29015KT 20/M06 A3011 RMK A01 T01961062  RH  017%=      5-min Rain = 0
KGU1 181639Z 29015KT 20/M06 A3011 RMK A01 T01961062  RH  017%=      5-min Rain = 0
KGU1 181640Z 29018KT 20/M06 A3011 RMK A01 T01971061  RH  017%=      5-min Rain = 0
KGU1 181641Z 29014KT 20/M06 A3011 RMK A01 T01981060  RH  017%=      5-min Rain = 0
KGU1 181642Z 29014G19KT 20/M06 A3011 RMK A01 T01981060  RH  017%=      5-min Rain = 0
KGU1 181643Z 29015KT 20/M06 A3011 RMK A01 T01991060  RH  017%=      5-min Rain = 0
KGU1 181644Z 29015KT 20/M06 A3011 RMK A01 T01991060  RH  017%=      5-min Rain = 0
KGU1 181645Z 28014G20KT 20/M06 A3011 RMK A01 T02001058  RH  017%=      5-min Rain = 0
KGU1 181646Z 28017KT 20/M06 A3011 RMK A01 T02011060  RH  017%=      5-min Rain = 0
KGU1 181647Z 29020G25KT 20/M06 A3011 RMK A01 T01991060  RH  017%=      5-min Rain = 0
KGU1 181648Z 29019KT 20/M06 A3011 RMK A01 T01981060  RH  017%=      5-min Rain = 0
KGU1 181649Z 30015KT 20/M06 A3011 RMK A01 T01971059  RH  017%=      5-min Rain = 0
KGU1 181650Z 29018G23KT 20/M06 A3011 RMK A01 T01981059  RH  017%=      5-min Rain = 0
KGU1 181651Z 28018KT 20/M06 A301 RMK A01 T01971061  RH  017%=      5-min Rain = 0
KGU1 181652Z 29017KT 20/M06 A301 RMK A01 T01971062  RH  017%=      5-min Rain = 0
KGU1 181653Z 28021G27KT 20/M06 A301 RMK A01 T01961064  RH  017%=      5-min Rain = 0
KGU1 181654Z 29023KT 19/M07 A301 RMK A01 T01941065  RH  017%=      5-min Rain = 0
KGU1 181655Z 29021KT 19/M06 A301 RMK A01 T01941064  RH  017%=      5-min Rain = 0
KGU1 181656Z 27019G24KT 20/M06 A301 RMK A01 T01951063  RH  017%=      5-min Rain = 0
KGU1 181657Z 28020KT 20/M06 A301 RMK A01 T01961062  RH  017%=      5-min Rain = 0
KGU1 181658Z 29017KT 20/M06 A301 RMK A01 T01951063  RH  017%=      5-min Rain = 0
KGU1 181659Z 29019KT 20/M06 A301 RMK A01 T01951063  RH  017%=      5-min Rain = 0
KGU1 181700Z 29022G28KT 20/M06 A301 RMK A01 T01961062  RH  017%=      5-min Rain = 0
KGU1 181701Z 28022KT 20/M06 A301 RMK A01 T01951063  RH  017%=      5-min Rain = 0
KGU1 181702Z 29024KT 19/M06 A301 RMK A01 T01941064  RH  017%=      5-min Rain = 0
KGU1 181703Z 29021G26KT 19/M06 A301 RMK A01 T01931064  RH  017%=      5-min Rain = 0
KGU1 181704Z 29021KT 19/M06 A301 RMK A01 T01941062  RH  017%=      5-min Rain = 0
KGU1 181705Z 29019KT 19/M06 A301 RMK A01 T01941063  RH  017%=      5-min Rain = 0
KGU1 181706Z 29021KT 20/M06 A301 RMK A01 T01951064  RH  017%=      5-min Rain = 0
KGU1 181707Z 28022KT 20/M06 A301 RMK A01 T01951063  RH  017%=      5-min Rain = 0
KGU1 181708Z 28017G22KT 20/M06 A301 RMK A01 T01961063  RH  017%=      5-min Rain = 0
KGU1 181709Z 29020G29KT 20/M06 A301 RMK A01 T01951062  RH  017%=      5-min Rain = 0
KGU1 181710Z 28024G29KT 19/M06 A301 RMK A01 T01941063  RH  017%=      5-min Rain = 0
KGU1 181711Z 29021G28KT 19/M06 A301 RMK A01 T01931063  RH  017%=      5-min Rain = 0
KGU1 181712Z 28020KT 19/M06 A301 RMK A01 T01941062  RH  017%=      5-min Rain = 0
KGU1 181713Z 29020KT 20/M06 A301 RMK A01 T01951062  RH  017%=      5-min Rain = 0
KGU1 181714Z 28023G31KT 19/M06 A301 RMK A01 T01941061  RH  017%=      5-min Rain = 0
KGU1 181715Z 29023G30KT 19/M06 A3009 RMK A01 T01941060  RH  017%=      5-min Rain = 0
KGU1 181716Z 30020G25KT 20/M06 A301 RMK A01 T01961058  RH  017%=      5-min Rain = 0
KGU1 181717Z 29021KT 20/M06 A301 RMK A01 T01961059  RH  017%=      5-min Rain = 0
KGU1 181718Z 29023KT 20/M06 A301 RMK A01 T01951058  RH  017%=      5-min Rain = 0
KGU1 181719Z 29021G26KT 20/M06 A301 RMK A01 T01951058  RH  018%=      5-min Rain = 0
KGU1 181720Z 29022KT 20/M06 A3009 RMK A01 T01951058  RH  018%=      5-min Rain = 0
KGU1 181721Z 29022G29KT 20/M06 A301 RMK A01 T01951057  RH  018%=      5-min Rain = 0
KGU1 181722Z 29022KT 20/M06 A301 RMK A01 T01951056  RH  018%=      5-min Rain = 0
KGU1 181723Z 29022KT 20/M06 A301 RMK A01 T01971055  RH  018%=      5-min Rain = 0
KGU1 181724Z 29024KT 20/M05 A301 RMK A01 T01971054  RH  018%=      5-min Rain = 0
KGU1 181725Z 29020G26KT 20/M06 A301 RMK A01 T01971055  RH  018%=      5-min Rain = 0
KGU1 181726Z 29023KT 20/M06 A3009 RMK A01 T01961055  RH  018%=      5-min Rain = 0
KGU1 181727Z 29022KT 20/M05 A3009 RMK A01 T01961054  RH  018%=      5-min Rain = 0
KGU1 181728Z 30023KT 20/M06 A3009 RMK A01 T01971055  RH  018%=      5-min Rain = 0
KGU1 181729Z 29021KT 20/M06 A3009 RMK A01 T01961055  RH  018%=      5-min Rain = 0
KGU1 181730Z 30021KT 20/M06 A3009 RMK A01 T01961056  RH  018%=      5-min Rain = 0
KGU1 181731Z 29022KT 20/M06 A3009 RMK A01 T01951056  RH  018%=      5-min Rain = 0
KGU1 181732Z 29018G23KT 20/M06 A3009 RMK A01 T01961056  RH  018%=      5-min Rain = 0
KGU1 181733Z 30023KT 20/M06 A301 RMK A01 T01951057  RH  018%=      5-min Rain = 0
KGU1 181734Z 29021G28KT 19/M06 A3009 RMK A01 T01931058  RH  018%=      5-min Rain = 0
KGU1 181735Z 29019G27KT 19/M06 A3009 RMK A01 T01941058  RH  018%=      5-min Rain = 0
KGU1 181736Z 29023KT 19/M06 A301 RMK A01 T01941058  RH  018%=      5-min Rain = 0
KGU1 181737Z 29023G30KT 19/M06 A301 RMK A01 T01931058  RH  018%=      5-min Rain = 0
KGU1 181738Z 29020G26KT 19/M06 A301 RMK A01 T01931059  RH  018%=      5-min Rain = 0
KGU1 181739Z 29020G26KT 19/M06 A301 RMK A01 T01941058  RH  018%=      5-min Rain = 0
KGU1 181740Z 29019KT 20/M06 A301 RMK A01 T01961056  RH  018%=      5-min Rain = 0
KGU1 181741Z 29021KT 20/M06 A301 RMK A01 T01971056  RH  018%=      5-min Rain = 0
KGU1 181742Z 29022KT 20/M06 A301 RMK A01 T01961055  RH  018%=      5-min Rain = 0
KGU1 181743Z 30021KT 19/M06 A301 RMK A01 T01941056  RH  018%=      5-min Rain = 0
KGU1 181744Z 29022G29KT 19/M05 A301 RMK A01 T01931054  RH  018%=      5-min Rain = 0
KGU1 181745Z 30018G26KT 19/M05 A301 RMK A01 T01931053  RH  018%=      5-min Rain = 0
KGU1 181746Z 29020G25KT 19/M05 A301 RMK A01 T01941054  RH  018%=      5-min Rain = 0
KGU1 181747Z 29019KT 19/M05 A301 RMK A01 T01941054  RH  018%=      5-min Rain = 0
KGU1 181748Z 30017G23KT 20/M05 A301 RMK A01 T01951053  RH  018%=      5-min Rain = 0
KGU1 181749Z 29021KT 19/M05 A301 RMK A01 T01941054  RH  018%=      5-min Rain = 0
KGU1 181750Z 29017G22KT 19/M05 A301 RMK A01 T01941053  RH  018%=      5-min Rain = 0
KGU1 181751Z 29019G24KT 20/M05 A301 RMK A01 T01961051  RH  018%=      5-min Rain = 0
KGU1 181752Z 30021G28KT 20/M05 A301 RMK A01 T01951053  RH  018%=      5-min Rain = 0
KGU1 181753Z 29017KT 19/M05 A301 RMK A01 T01931053  RH  018%=      5-min Rain = 0
KGU1 181754Z 29020KT 19/M05 A301 RMK A01 T01941053  RH  018%=      5-min Rain = 0
KGU1 181755Z 29018KT 19/M05 A301 RMK A01 T01931053  RH  018%=      5-min Rain = 0
KGU1 181756Z 29019G25KT 19/M05 A301 RMK A01 T01941052  RH  019%=      5-min Rain = 0
KGU1 181757Z 30022G28KT 20/M05 A301 RMK A01 T01951052  RH  018%=      5-min Rain = 0
KGU1 181758Z 29022G27KT 19/M05 A301 RMK A01 T01921053  RH  019%=      5-min Rain = 0
KGU1 181759Z 29016KT 19/M05 A301 RMK A01 T01911052  RH  019%=      5-min Rain = 0
KGU1 181800Z 29018KT 19/M05 A301 RMK A01 T01931051  RH  019%=      5-min Rain = 0
KGU1 181801Z 29015KT 19/M05 A301 RMK A01 T01931052  RH  019%=      5-min Rain = 0
KGU1 181802Z 29020G26KT 20/M05 A3009 RMK A01 T01951051  RH  019%=      5-min Rain = 0
KGU1 181803Z 29020KT 20/M05 A3009 RMK A01 T01951052  RH  018%=      5-min Rain = 0
KGU1 181804Z 29019G25KT 20/M05 A3009 RMK A01 T01951052  RH  018%=      5-min Rain = 0
KGU1 181805Z 29017KT 20/M05 A3009 RMK A01 T01951053  RH  018%=      5-min Rain = 0
KGU1 181806Z 29021KT 20/M05 A3009 RMK A01 T01951053  RH  018%=      5-min Rain = 0
KGU1 181807Z 29018G24KT 20/M05 A3009 RMK A01 T01951053  RH  018%=      5-min Rain = 0
KGU1 181808Z 29018KT 20/M05 A3009 RMK A01 T01961053  RH  018%=      5-min Rain = 0
KGU1 181809Z 29014G19KT 20/M05 A3009 RMK A01 T01971053  RH  018%=      5-min Rain = 0
KGU1 181810Z 30017G22KT 20/M05 A3009 RMK A01 T01981053  RH  018%=      5-min Rain = 0
KGU1 181811Z 29019KT 20/M05 A3009 RMK A01 T01991054  RH  018%=      5-min Rain = 0
KGU1 181812Z 29018KT 20/M05 A3009 RMK A01 T01991054  RH  018%=      5-min Rain = 0
KGU1 181813Z 29020G25KT 20/M06 A3009 RMK A01 T01991055  RH  018%=      5-min Rain = 0
KGU1 181814Z 29017G23KT 20/M06 A3009 RMK A01 T01991055  RH  018%=      5-min Rain = 0
KGU1 181815Z 29016G22KT 20/M05 A3008 RMK A01 T01991054  RH  018%=      5-min Rain = 0
KGU1 181816Z 29021KT 20/M06 A3008 RMK A01 T02001056  RH  017%=      5-min Rain = 0
KGU1 181817Z 29018KT 20/M06 A3008 RMK A01 T01981057  RH  017%=      5-min Rain = 0
KGU1 181818Z 30017G23KT 20/M06 A3008 RMK A01 T01991055  RH  018%=      5-min Rain = 0
KGU1 181819Z 30018G23KT 20/M06 A3008 RMK A01 T02001056  RH  017%=      5-min Rain = 0
KGU1 181820Z 30018G24KT 20/M06 A3008 RMK A01 T02001057  RH  017%=      5-min Rain = 0
KGU1 181821Z 29018G24KT 20/M06 A3008 RMK A01 T01991057  RH  017%=      5-min Rain = 0
KGU1 181822Z 30013KT 20/M06 A3008 RMK A01 T01981057  RH  017%=      5-min Rain = 0
KGU1 181823Z 30013G18KT 20/M06 A3008 RMK A01 T01991057  RH  017%=      5-min Rain = 0
KGU1 181824Z 30018KT 20/M06 A3008 RMK A01 T02011055  RH  017%=      5-min Rain = 0
KGU1 181825Z 30015KT 20/M06 A3008 RMK A01 T02011056  RH  017%=      5-min Rain = 0
KGU1 181826Z 30019G24KT 20/M06 A3008 RMK A01 T02011056  RH  017%=      5-min Rain = 0
KGU1 181827Z 30016KT 20/M06 A3008 RMK A01 T02001056  RH  017%=      5-min Rain = 0
KGU1 181828Z 30010G17KT 20/M05 A3008 RMK A01 T02011054  RH  017%=      5-min Rain = 0
KGU1 181829Z 29017KT 20/M05 A3008 RMK A01 T02031054  RH  017%=      5-min Rain = 0
KGU1 181830Z 30014G19KT 20/M06 A3008 RMK A01 T02011055  RH  017%=      5-min Rain = 0
KGU1 181831Z 30019KT 20/M06 A3008 RMK A01 T02021055  RH  017%=      5-min Rain = 0
KGU1 181832Z 30018G24KT 20/M06 A3008 RMK A01 T01991057  RH  017%=      5-min Rain = 0
KGU1 181833Z 30013KT 20/M06 A3008 RMK A01 T01981057  RH  017%=      5-min Rain = 0
KGU1 181834Z 29017KT 20/M06 A3008 RMK A01 T02001056  RH  017%=      5-min Rain = 0
KGU1 181835Z 30016G22KT 20/M06 A3008 RMK A01 T02011055  RH  017%=      5-min Rain = 0
KGU1 181836Z 30017KT 20/M06 A3008 RMK A01 T02001056  RH  017%=      5-min Rain = 0
KGU1 181837Z 31015G21KT 20/M06 A3008 RMK A01 T01991056  RH  017%=      5-min Rain = 0
KGU1 181838Z 29016KT 20/M06 A3008 RMK A01 T02011055  RH  017%=      5-min Rain = 0
KGU1 181839Z 30015KT 20/M06 A3008 RMK A01 T02021055  RH  017%=      5-min Rain = 0
KGU1 181840Z 30018G25KT 20/M05 A3008 RMK A01 T02021054  RH  017%=      5-min Rain = 0
KGU1 181841Z 30016KT 20/M06 A3008 RMK A01 T02011056  RH  017%=      5-min Rain = 0
KGU1 181842Z 31015KT 20/M06 A3008 RMK A01 T02001055  RH  017%=      5-min Rain = 0
KGU1 181843Z 30016KT 20/M06 A3008 RMK A01 T02001056  RH  017%=      5-min Rain = 0
KGU1 181844Z 32014KT 20/M06 A3008 RMK A01 T02001055  RH  017%=      5-min Rain = 0
KGU1 181845Z 30013G19KT 20/M05 A3007 RMK A01 T02031052  RH  017%=      5-min Rain = 0
KGU1 181846Z 29016KT 21/M05 A3007 RMK A01 T02061052  RH  017%=      5-min Rain = 0
KGU1 181847Z 31012KT 21/M05 A3007 RMK A01 T02061053  RH  017%=      5-min Rain = 0
KGU1 181848Z 30014KT 21/M05 A3007 RMK A01 T02061051  RH  017%=      5-min Rain = 0
KGU1 181849Z 31013G19KT 21/M05 A3007 RMK A01 T02071052  RH  017%=      5-min Rain = 0
KGU1 181850Z 30015KT 21/M05 A3007 RMK A01 T02071052  RH  017%=      5-min Rain = 0
KGU1 181851Z 31015KT 21/M05 A3007 RMK A01 T02071053  RH  017%=      5-min Rain = 0
KGU1 181852Z 31015KT 21/M05 A3007 RMK A01 T02051053  RH  017%=      5-min Rain = 0
KGU1 181853Z 31016KT 21/M05 A3007 RMK A01 T02051052  RH  017%=      5-min Rain = 0
KGU1 181854Z 30011KT 21/M05 A3007 RMK A01 T02051052  RH  017%=      5-min Rain = 0
KGU1 181855Z 31010KT 21/M05 A3007 RMK A01 T02071049  RH  017%=      5-min Rain = 0
KGU1 181856Z 32010KT 21/M05 A3007 RMK A01 T02091050  RH  017%=      5-min Rain = 0
KGU1 181857Z 33009KT 21/M05 A3007 RMK A01 T02101050  RH  017%=      5-min Rain = 0
KGU1 181858Z 33008KT 21/M05 A3007 RMK A01 T02111049  RH  017%=      5-min Rain = 0
KGU1 181859Z 33007KT 21/M05 A3007 RMK A01 T02131050  RH  017%=      5-min Rain = 0
KGU1 181900Z 32007KT 22/M05 A3007 RMK A01 T02151048  RH  017%=      5-min Rain = 0
KGU1 181901Z 30008KT 22/M05 A3007 RMK A01 T02171049  RH  016%=      5-min Rain = 0
KGU1 181902Z 30009G14KT 22/M05 A3007 RMK A01 T02191048  RH  016%=      5-min Rain = 0
KGU1 181903Z 29008KT 22/M05 A3006 RMK A01 T02211050  RH  016%=      5-min Rain = 0
KGU1 181904Z 29005G10KT 22/M05 A3006 RMK A01 T02211050  RH  016%=      5-min Rain = 0
KGU1 181905Z 31008KT 22/M05 A3006 RMK A01 T02221048  RH  016%=      5-min Rain = 0
KGU1 181906Z 30009KT 22/M05 A3007 RMK A01 T02231048  RH  016%=      5-min Rain = 0
KGU1 181907Z 30010KT 22/M05 A3006 RMK A01 T02221049  RH  016%=      5-min Rain = 0
KGU1 181908Z 30009KT 22/M05 A3006 RMK A01 T02181050  RH  016%=      5-min Rain = 0
KGU1 181909Z 30005KT 22/M05 A3006 RMK A01 T02161050  RH  016%=      5-min Rain = 0
KGU1 181910Z 30006KT 22/M05 A3006 RMK A01 T02181048  RH  017%=      5-min Rain = 0
KGU1 181911Z 28008KT 22/M05 A3006 RMK A01 T02211046  RH  016%=      5-min Rain = 0
KGU1 181912Z 26004KT 22/M05 A3006 RMK A01 T02231048  RH  016%=      5-min Rain = 0
KGU1 181913Z 31005KT 22/M05 A3006 RMK A01 T02241046  RH  016%=      5-min Rain = 0
KGU1 181914Z 00003KT 22/M05 A3006 RMK A01 T02231053  RH  015%=      5-min Rain = 0
KGU1 181915Z 06004KT 22/M05 A3006 RMK A01 T02211052  RH  016%=      5-min Rain = 0
KGU1 181916Z 09007KT 22/M05 A3006 RMK A01 T02221048  RH  016%=      5-min Rain = 0
KGU1 181917Z 10005KT 22/M05 A3006 RMK A01 T02231051  RH  016%=      5-min Rain = 0
KGU1 181918Z 10006KT 22/M05 A3006 RMK A01 T02231053  RH  015%=      5-min Rain = 0
KGU1 181919Z 08005KT 22/M05 A3006 RMK A01 T02211052  RH  016%=      5-min Rain = 0
KGU1 181920Z 09007KT 22/M05 A3006 RMK A01 T02221050  RH  016%=      5-min Rain = 0
KGU1 181921Z 10007KT 22/M05 A3006 RMK A01 T02221050  RH  016%=      5-min Rain = 0
KGU1 181922Z 09008KT 22/M05 A3006 RMK A01 T02231050  RH  016%=      5-min Rain = 0
KGU1 181923Z 10008KT 22/M05 A3006 RMK A01 T02221050  RH  016%=      5-min Rain = 0
KGU1 181924Z 12009KT 22/M05 A3006 RMK A01 T02231048  RH  016%=      5-min Rain = 0
KGU1 181925Z 12009KT 22/M05 A3006 RMK A01 T02241051  RH  016%=      5-min Rain = 0
KGU1 181926Z 12006KT 22/M05 A3006 RMK A01 T02221051  RH  016%=      5-min Rain = 0
KGU1 181927Z 11008KT 22/M05 A3006 RMK A01 T02221050  RH  016%=      5-min Rain = 0
KGU1 181928Z 11008KT 22/M05 A3006 RMK A01 T02221049  RH  016%=      5-min Rain = 0
KGU1 181929Z 06006KT 22/M05 A3006 RMK A01 T02211054  RH  015%=      5-min Rain = 0
KGU1 181930Z 07003KT 22/M05 A3006 RMK A01 T02181054  RH  016%=      5-min Rain = 0
KGU1 181931Z 08005KT 22/M05 A3006 RMK A01 T02181050  RH  016%=      5-min Rain = 0
KGU1 181932Z 08007KT 22/M05 A3006 RMK A01 T02191050  RH  016%=      5-min Rain = 0
KGU1 181933Z 09007KT 22/M05 A3006 RMK A01 T02181051  RH  016%=      5-min Rain = 0
KGU1 181934Z 09007KT 22/M05 A3006 RMK A01 T02211049  RH  016%=      5-min Rain = 0
KGU1 181935Z 09007KT 22/M05 A3006 RMK A01 T02231049  RH  016%=      5-min Rain = 0
KGU1 181936Z 09005KT 22/M05 A3006 RMK A01 T02231052  RH  015%=      5-min Rain = 0
KGU1 181937Z 11006KT 22/M05 A3006 RMK A01 T02231049  RH  016%=      5-min Rain = 0
KGU1 181938Z 10009KT 22/M05 A3006 RMK A01 T02221051  RH  016%=      5-min Rain = 0
KGU1 181939Z 09010KT 22/M05 A3006 RMK A01 T02221048  RH  016%=      5-min Rain = 0
KGU1 181940Z 09010KT 22/M05 A3006 RMK A01 T02211051  RH  016%=      5-min Rain = 0
KGU1 181941Z 09008KT 22/M05 A3006 RMK A01 T02191052  RH  016%=      5-min Rain = 0
KGU1 181942Z 09009KT 22/M05 A3006 RMK A01 T02181051  RH  016%=      5-min Rain = 0
KGU1 181943Z 10007KT 22/M05 A3006 RMK A01 T02151054  RH  016%=      5-min Rain = 0
KGU1 181944Z 10006KT 22/M05 A3006 RMK A01 T02151051  RH  016%=      5-min Rain = 0
KGU1 181945Z 11007G12KT 22/M05 A3005 RMK A01 T02161051  RH  016%=      5-min Rain = 0
KGU1 181946Z 12007KT 22/M05 A3005 RMK A01 T02161051  RH  016%=      5-min Rain = 0
KGU1 181947Z 14007KT 22/M05 A3005 RMK A01 T02161052  RH  016%=      5-min Rain = 0
KGU1 181948Z 14007KT 22/M05 A3005 RMK A01 T02171051  RH  016%=      5-min Rain = 0
KGU1 181949Z 12005KT 22/M05 A3005 RMK A01 T02171049  RH  016%=      5-min Rain = 0
KGU1 181950Z 11007KT 22/M05 A3005 RMK A01 T02201047  RH  016%=      5-min Rain = 0
KGU1 181951Z 11007KT 22/M05 A3005 RMK A01 T02241046  RH  016%=      5-min Rain = 0
KGU1 181952Z 09008KT 23/M05 A3005 RMK A01 T02251049  RH  016%=      5-min Rain = 0
KGU1 181953Z 08008KT 22/M05 A3005 RMK A01 T02231049  RH  016%=      5-min Rain = 0
KGU1 181954Z 08007KT 22/M05 A3005 RMK A01 T02211050  RH  016%=      5-min Rain = 0
KGU1 181955Z 08011KT 22/M05 A3005 RMK A01 T02181049  RH  016%=      5-min Rain = 0
KGU1 181956Z 07007KT 22/M05 A3005 RMK A01 T02171051  RH  016%=      5-min Rain = 0
KGU1 181957Z 08009KT 22/M05 A3005 RMK A01 T02161049  RH  017%=      5-min Rain = 0
KGU1 181958Z 07006KT 22/M05 A3005 RMK A01 T02151051  RH  016%=      5-min Rain = 0
KGU1 181959Z 08006KT 22/M05 A3005 RMK A01 T02151051  RH  016%=      5-min Rain = 0
KGU1 182000Z 07005KT 22/M05 A3005 RMK A01 T02171048  RH  017%=      5-min Rain = 0
KGU1 182001Z 08010KT 22/M05 A3005 RMK A01 T02191046  RH  017%=      5-min Rain = 0
KGU1 182002Z 07009KT 22/M05 A3005 RMK A01 T02181047  RH  016%=      5-min Rain = 0
KGU1 182003Z 08008KT 22/M05 A3005 RMK A01 T02191048  RH  016%=      5-min Rain = 0
KGU1 182004Z 06010KT 22/M05 A3005 RMK A01 T02191047  RH  017%=      5-min Rain = 0
KGU1 182005Z 05010KT 22/M05 A3005 RMK A01 T02171049  RH  016%=      5-min Rain = 0
KGU1 182006Z 06009KT 21/M05 A3005 RMK A01 T02131051  RH  017%=      5-min Rain = 0
KGU1 182007Z 08007KT 21/M05 A3005 RMK A01 T02121046  RH  017%=      5-min Rain = 0
KGU1 182008Z 11009KT 22/M05 A3005 RMK A01 T02161046  RH  017%=      5-min Rain = 0
KGU1 182009Z 09007KT 22/M05 A3005 RMK A01 T02161047  RH  017%=      5-min Rain = 0
KGU1 182010Z 08008KT 22/M05 A3005 RMK A01 T02161045  RH  017%=      5-min Rain = 0
KGU1 182011Z 06007KT 22/M05 A3005 RMK A01 T02151050  RH  016%=      5-min Rain = 0
KGU1 182012Z 01006KT 21/M05 A3005 RMK A01 T02121050  RH  017%=      5-min Rain = 0
KGU1 182013Z 35002KT 21/M05 A3005 RMK A01 T02111050  RH  017%=      5-min Rain = 0
KGU1 182014Z 05005G10KT 21/M04 A3005 RMK A01 T02131044  RH  017%=      5-min Rain = 0
KGU1 182015Z 08003KT 22/M05 A3005 RMK A01 T02161047  RH  017%=      5-min Rain = 0
KGU1 182016Z 11006KT 22/M05 A3005 RMK A01 T02171045  RH  017%=      5-min Rain = 0
KGU1 182017Z 09009KT 22/M04 A3005 RMK A01 T02191043  RH  017%=      5-min Rain = 0
KGU1 182018Z 11009KT 22/M05 A3005 RMK A01 T02171046  RH  017%=      5-min Rain = 0
KGU1 182019Z 10008KT 22/M05 A3005 RMK A01 T02161046  RH  017%=      5-min Rain = 0
KGU1 182020Z 09007KT 21/M05 A3005 RMK A01 T02141048  RH  017%=      5-min Rain = 0
KGU1 182021Z 09006KT 21/M05 A3005 RMK A01 T02131047  RH  017%=      5-min Rain = 0
KGU1 182022Z 08005KT 21/M05 A3005 RMK A01 T02131047  RH  017%=      5-min Rain = 0
KGU1 182023Z 08005KT 21/M05 A3005 RMK A01 T02131047  RH  017%=      5-min Rain = 0
KGU1 182024Z 10005KT 21/M05 A3005 RMK A01 T02131047  RH  017%=      5-min Rain = 0
KGU1 182025Z 10005KT 21/M05 A3005 RMK A01 T02141045  RH  017%=      5-min Rain = 0
KGU1 182026Z 12006KT 22/M04 A3005 RMK A01 T02161044  RH  017%=      5-min Rain = 0
KGU1 182027Z 12008KT 22/M04 A3005 RMK A01 T02161044  RH  017%=      5-min Rain = 0
KGU1 182028Z 11008KT 22/M05 A3005 RMK A01 T02161045  RH  017%=      5-min Rain = 0
KGU1 182029Z 11006KT 21/M05 A3005 RMK A01 T02141048  RH  017%=      5-min Rain = 0
KGU1 182030Z 12003KT 21/M05 A3005 RMK A01 T02131045  RH  017%=      5-min Rain = 0
KGU1 182031Z 11003KT 22/M04 A3005 RMK A01 T02151044  RH  017%=      5-min Rain = 0
KGU1 182032Z 12005KT 22/M05 A3005 RMK A01 T02151045  RH  017%=      5-min Rain = 0
KGU1 182033Z 11004KT 22/M04 A3005 RMK A01 T02161044  RH  017%=      5-min Rain = 0
KGU1 182034Z 17004KT 22/M04 A3005 RMK A01 T02161042  RH  017%=      5-min Rain = 0
KGU1 182035Z 19007KT 22/M05 A3005 RMK A01 T02171045  RH  017%=      5-min Rain = 0
KGU1 182036Z 19007KT 21/M05 A3005 RMK A01 T02141047  RH  017%=      5-min Rain = 0
KGU1 182037Z 18005KT 21/M05 A3005 RMK A01 T02131046  RH  017%=      5-min Rain = 0
KGU1 182038Z 15005KT 21/M04 A3005 RMK A01 T02141044  RH  017%=      5-min Rain = 0
KGU1 182039Z 15007KT 21/M05 A3005 RMK A01 T02141045  RH  017%=      5-min Rain = 0
KGU1 182040Z 15004KT 21/M05 A3005 RMK A01 T02131046  RH  017%=      5-min Rain = 0
KGU1 182041Z 18007KT 21/M04 A3005 RMK A01 T02141044  RH  017%=      5-min Rain = 0
KGU1 182042Z 15008KT 21/M04 A3005 RMK A01 T02131044  RH  017%=      5-min Rain = 0
KGU1 182043Z 14008KT 21/M05 A3005 RMK A01 T02121047  RH  017%=      5-min Rain = 0
KGU1 182044Z 14008KT 21/M05 A3004 RMK A01 T02111046  RH  017%=      5-min Rain = 0
KGU1 182045Z 12008KT 21/M05 A3004 RMK A01 T02101047  RH  017%=      5-min Rain = 0
KGU1 182046Z 10007KT 21/M05 A3004 RMK A01 T02081048  RH  018%=      5-min Rain = 0
KGU1 182047Z 11009KT 21/M05 A3004 RMK A01 T02081046  RH  018%=      5-min Rain = 0
KGU1 182048Z 12005G11KT 21/M05 A3004 RMK A01 T02081047  RH  018%=      5-min Rain = 0
KGU1 182049Z 16004G11KT 21/M05 A3004 RMK A01 T02091046  RH  018%=      5-min Rain = 0
KGU1 182050Z 18007KT 21/M05 A3004 RMK A01 T02111045  RH  018%=      5-min Rain = 0
KGU1 182051Z 19010KT 21/M04 A3004 RMK A01 T02131044  RH  018%=      5-min Rain = 0
KGU1 182052Z 20008KT 21/M05 A3004 RMK A01 T02111045  RH  018%=      5-min Rain = 0
KGU1 182053Z 19005KT 21/M04 A3004 RMK A01 T02121044  RH  018%=      5-min Rain = 0
KGU1 182054Z 19007KT 21/M04 A3004 RMK A01 T02131044  RH  018%=      5-min Rain = 0
KGU1 182055Z 18008KT 21/M05 A3004 RMK A01 T02111045  RH  018%=      5-min Rain = 0
KGU1 182056Z 19009KT 21/M04 A3004 RMK A01 T02121042  RH  018%=      5-min Rain = 0
KGU1 182057Z 20007KT 21/M04 A3004 RMK A01 T02131044  RH  018%=      5-min Rain = 0
KGU1 182058Z 20009KT 21/M05 A3004 RMK A01 T02121045  RH  017%=      5-min Rain = 0
KGU1 182059Z 21009KT 21/M05 A3004 RMK A01 T02101046  RH  018%=      5-min Rain = 0
KGU1 182100Z 20009KT 21/M04 A3004 RMK A01 T02101044  RH  018%=      5-min Rain = 0
KGU1 182101Z 19010KT 21/M04 A3004 RMK A01 T02121044  RH  018%=      5-min Rain = 0
KGU1 182102Z 19010KT 21/M05 A3004 RMK A01 T02101046  RH  018%=      5-min Rain = 0
KGU1 182103Z 19008KT 21/M05 A3004 RMK A01 T02071048  RH  018%=      5-min Rain = 0
KGU1 182104Z 18007KT 21/M04 A3004 RMK A01 T02081044  RH  018%=      5-min Rain = 0
KGU1 182105Z 18008KT 21/M05 A3004 RMK A01 T02081047  RH  018%=      5-min Rain = 0
KGU1 182106Z 16010KT 21/M04 A3004 RMK A01 T02071042  RH  018%=      5-min Rain = 0
KGU1 182107Z 17011KT 21/M04 A3004 RMK A01 T02081041  RH  018%=      5-min Rain = 0
KGU1 182108Z 17012KT 21/M04 A3004 RMK A01 T02061043  RH  018%=      5-min Rain = 0
KGU1 182109Z 17011KT 20/M04 A3004 RMK A01 T02041044  RH  019%=      5-min Rain = 0
KGU1 182110Z 17010KT 20/M04 A3005 RMK A01 T02041044  RH  018%=      5-min Rain = 0
KGU1 182111Z 19008KT 20/M04 A3005 RMK A01 T02031044  RH  019%=      5-min Rain = 0
KGU1 182112Z 19007KT 20/M04 A3004 RMK A01 T02041044  RH  018%=      5-min Rain = 0
KGU1 182113Z 18006KT 20/M05 A3004 RMK A01 T02041045  RH  018%=      5-min Rain = 0
KGU1 182114Z 20007KT 21/M04 A3004 RMK A01 T02061042  RH  019%=      5-min Rain = 0
KGU1 182115Z 22008KT 21/M04 A3004 RMK A01 T02081043  RH  018%=      5-min Rain = 0
KGU1 182116Z 21009KT 21/M04 A3004 RMK A01 T02091042  RH  018%=      5-min Rain = 0
KGU1 182117Z 22008KT 21/M04 A3004 RMK A01 T02101043  RH  018%=      5-min Rain = 0
KGU1 182118Z 21006KT 21/M04 A3004 RMK A01 T02111043  RH  018%=      5-min Rain = 0
KGU1 182119Z 20007KT 21/M04 A3004 RMK A01 T02111043  RH  018%=      5-min Rain = 0
KGU1 182120Z 21008KT 21/M04 A3005 RMK A01 T02101043  RH  018%=      5-min Rain = 0
KGU1 182121Z 21008KT 21/M04 A3005 RMK A01 T02101044  RH  018%=      5-min Rain = 0
KGU1 182122Z 21006KT 21/M05 A3005 RMK A01 T02081045  RH  018%=      5-min Rain = 0
KGU1 182123Z 20008KT 21/M05 A3005 RMK A01 T02071046  RH  018%=      5-min Rain = 0
KGU1 182124Z 22008KT 21/M05 A3005 RMK A01 T02051045  RH  018%=      5-min Rain = 0
KGU1 182125Z 22006KT 21/M04 A3005 RMK A01 T02071044  RH  018%=      5-min Rain = 0
KGU1 182126Z 22009KT 21/M04 A3005 RMK A01 T02081044  RH  018%=      5-min Rain = 0
KGU1 182127Z 23007KT 21/M05 A3005 RMK A01 T02071045  RH  018%=      5-min Rain = 0
KGU1 182128Z 23006KT 21/M05 A3005 RMK A01 T02061045  RH  018%=      5-min Rain = 0
KGU1 182129Z 23005KT 21/M04 A3005 RMK A01 T02081041  RH  018%=      5-min Rain = 0
KGU1 182130Z 23006KT 21/M04 A3005 RMK A01 T02101043  RH  018%=      5-min Rain = 0
KGU1 182131Z 24006KT 21/M04 A3005 RMK A01 T02111041  RH  018%=      5-min Rain = 0
KGU1 182132Z 23007KT 21/M04 A3005 RMK A01 T02111042  RH  018%=      5-min Rain = 0
KGU1 182133Z 24007KT 21/M05 A3005 RMK A01 T02101045  RH  018%=      5-min Rain = 0
KGU1 182134Z 24006KT 21/M05 A3005 RMK A01 T02071046  RH  018%=      5-min Rain = 0
KGU1 182135Z 20006KT 21/M04 A3005 RMK A01 T02061044  RH  018%=      5-min Rain = 0
KGU1 182136Z 22006KT 21/M04 A3005 RMK A01 T02071043  RH  018%=      5-min Rain = 0
KGU1 182137Z 22003KT 21/M04 A3005 RMK A01 T02071043  RH  018%=      5-min Rain = 0
KGU1 182138Z 25003KT 21/M04 A3005 RMK A01 T02081043  RH  018%=      5-min Rain = 0
KGU1 182139Z 29008G13KT 21/M04 A3005 RMK A01 T02101040  RH  018%=      5-min Rain = 0
KGU1 182140Z 30011KT 21/M04 A3005 RMK A01 T02091040  RH  018%=      5-min Rain = 0
KGU1 182141Z 30012KT 21/M04 A3005 RMK A01 T02061041  RH  019%=      5-min Rain = 0
KGU1 182142Z 30011KT 20/M04 A3005 RMK A01 T02031041  RH  019%=      5-min Rain = 0
KGU1 182143Z 31012KT 20/M04 A3005 RMK A01 T02021042  RH  019%=      5-min Rain = 0
KGU1 182144Z 31010KT 20/M04 A3005 RMK A01 T02001042  RH  019%=      5-min Rain = 0
KGU1 182145Z 30009KT 20/M04 A3005 RMK A01 T02001041  RH  019%=      5-min Rain = 0
KGU1 182146Z 30011KT 20/M04 A3005 RMK A01 T02011041  RH  019%=      5-min Rain = 0
KGU1 182147Z 30009KT 20/M04 A3005 RMK A01 T02001041  RH  019%=      5-min Rain = 0
KGU1 182148Z 31012KT 20/M04 A3005 RMK A01 T02001040  RH  019%=      5-min Rain = 0
KGU1 182149Z 31012KT 20/M04 A3005 RMK A01 T02001043  RH  019%=      5-min Rain = 0
KGU1 182150Z 30010G15KT 20/M04 A3005 RMK A01 T01981043  RH  019%=      5-min Rain = 0
KGU1 182151Z 30011KT 20/M04 A3005 RMK A01 T01981042  RH  019%=      5-min Rain = 0
KGU1 182152Z 29010KT 20/M04 A3005 RMK A01 T01981042  RH  020%=      5-min Rain = 0
KGU1 182153Z 29013KT 20/M04 A3005 RMK A01 T01981041  RH  020%=      5-min Rain = 0
KGU1 182154Z 29008KT 20/M04 A3005 RMK A01 T01971041  RH  020%=      5-min Rain = 0
KGU1 182155Z 29010KT 20/M04 A3005 RMK A01 T01981041  RH  020%=      5-min Rain = 0
KGU1 182156Z 29012KT 20/M04 A3005 RMK A01 T01991040  RH  020%=      5-min Rain = 0
KGU1 182157Z 28009KT 20/M04 A3005 RMK A01 T01981042  RH  019%=      5-min Rain = 0
KGU1 182158Z 28010KT 20/M04 A3005 RMK A01 T01981041  RH  020%=      5-min Rain = 0
KGU1 182159Z 29010KT 20/M04 A3005 RMK A01 T01981040  RH  020%=      5-min Rain = 0
KGU1 182200Z 30011KT 20/M04 A3005 RMK A01 T01991040  RH  020%=      5-min Rain = 0
KGU1 182201Z 30014KT 20/M04 A3005 RMK A01 T01981042  RH  020%=      5-min Rain = 0
KGU1 182202Z 30013KT 20/M04 A3005 RMK A01 T01961041  RH  020%=      5-min Rain = 0
KGU1 182203Z 30013KT 20/M04 A3005 RMK A01 T01951042  RH  020%=      5-min Rain = 0
KGU1 182204Z 30010KT 20/M04 A3005 RMK A01 T01951041  RH  020%=      5-min Rain = 0
KGU1 182205Z 30011KT 20/M04 A3005 RMK A01 T01971040  RH  020%=      5-min Rain = 0
KGU1 182206Z 29010KT 20/M04 A3005 RMK A01 T01961041  RH  020%=      5-min Rain = 0
KGU1 182207Z 29011KT 20/M04 A3005 RMK A01 T01971040  RH  020%=      5-min Rain = 0
KGU1 182208Z 30010KT 20/M04 A3005 RMK A01 T01971039  RH  020%=      5-min Rain = 0
KGU1 182209Z 30012KT 20/M04 A3005 RMK A01 T01971039  RH  020%=      5-min Rain = 0
KGU1 182210Z 29012KT 20/M04 A3005 RMK A01 T01951041  RH  020%=      5-min Rain = 0
KGU1 182211Z 30011KT 19/M04 A3005 RMK A01 T01941040  RH  020%=      5-min Rain = 0
KGU1 182212Z 30014KT 19/M04 A3005 RMK A01 T01941041  RH  020%=      5-min Rain = 0
KGU1 182213Z 30012KT 19/M04 A3005 RMK A01 T01931041  RH  020%=      5-min Rain = 0
KGU1 182214Z 30010KT 19/M04 A3005 RMK A01 T01921040  RH  020%=      5-min Rain = 0
KGU1 182215Z 30012KT 19/M04 A3005 RMK A01 T01931040  RH  020%=      5-min Rain = 0
KGU1 182216Z 29011KT 19/M04 A3005 RMK A01 T01921040  RH  021%=      5-min Rain = 0
KGU1 182217Z 29011KT 19/M04 A3005 RMK A01 T01931040  RH  021%=      5-min Rain = 0
KGU1 182218Z 30012KT 19/M04 A3005 RMK A01 T01931040  RH  020%=      5-min Rain = 0
KGU1 182219Z 30012KT 19/M04 A3005 RMK A01 T01921041  RH  020%=      5-min Rain = 0
KGU1 182220Z 30013KT 19/M04 A3005 RMK A01 T01921040  RH  021%=      5-min Rain = 0
KGU1 182221Z 30012KT 19/M04 A3005 RMK A01 T01921040  RH  021%=      5-min Rain = 0
KGU1 182222Z 31009KT 19/M04 A3005 RMK A01 T01921041  RH  020%=      5-min Rain = 0
KGU1 182223Z 30011KT 19/M04 A3005 RMK A01 T01921040  RH  021%=      5-min Rain = 0
KGU1 182224Z 29011KT 19/M04 A3005 RMK A01 T01921040  RH  021%=      5-min Rain = 0
KGU1 182225Z 30010KT 19/M04 A3005 RMK A01 T01921039  RH  021%=      5-min Rain = 0
KGU1 182226Z 30012KT 19/M04 A3005 RMK A01 T01921040  RH  020%=      5-min Rain = 0
KGU1 182227Z 30009KT 19/M04 A3005 RMK A01 T01911041  RH  021%=      5-min Rain = 0
KGU1 182228Z 29012KT 19/M04 A3005 RMK A01 T01911039  RH  021%=      5-min Rain = 0
KGU1 182229Z 30010KT 19/M04 A3005 RMK A01 T01911039  RH  021%=      5-min Rain = 0
KGU1 182230Z 31009KT 19/M04 A3005 RMK A01 T01911040  RH  021%=      5-min Rain = 0
KGU1 182231Z 30010KT 19/M04 A3005 RMK A01 T01921040  RH  021%=      5-min Rain = 0
KGU1 182232Z 30010KT 19/M04 A3005 RMK A01 T01911040  RH  021%=      5-min Rain = 0
KGU1 182233Z 30010KT 19/M04 A3005 RMK A01 T01901040  RH  021%=      5-min Rain = 0
KGU1 182234Z 30009KT 19/M04 A3005 RMK A01 T01901039  RH  021%=      5-min Rain = 0
KGU1 182235Z 30008KT 19/M04 A3005 RMK A01 T01911038  RH  021%=      5-min Rain = 0
KGU1 182236Z 29009KT 19/M04 A3005 RMK A01 T01921039  RH  021%=      5-min Rain = 0
KGU1 182237Z 29005KT 19/M04 A3005 RMK A01 T01911039  RH  021%=      5-min Rain = 0
KGU1 182238Z 31006KT 19/M04 A3005 RMK A01 T01911038  RH  021%=      5-min Rain = 0
KGU1 182239Z 31006KT 19/M04 A3005 RMK A01 T01921038  RH  021%=      5-min Rain = 0
KGU1 182240Z 30010KT 19/M04 A3005 RMK A01 T01921038  RH  021%=      5-min Rain = 0
KGU1 182241Z 30009KT 19/M04 A3005 RMK A01 T01901039  RH  021%=      5-min Rain = 0
KGU1 182242Z 30009KT 19/M04 A3005 RMK A01 T01891038  RH  021%=      5-min Rain = 0
KGU1 182243Z 30009KT 19/M04 A3005 RMK A01 T01891038  RH  021%=      5-min Rain = 0
KGU1 182244Z 30009KT 19/M04 A3005 RMK A01 T01901038  RH  021%=      5-min Rain = 0
KGU1 182245Z 30008KT 19/M04 A3005 RMK A01 T01891038  RH  021%=      5-min Rain = 0
KGU1 182246Z 30008KT 19/M04 A3005 RMK A01 T01891039  RH  021%=      5-min Rain = 0
KGU1 182247Z 30008KT 19/M04 A3005 RMK A01 T01891038  RH  021%=      5-min Rain = 0
KGU1 182248Z 30007KT 19/M04 A3005 RMK A01 T01891040  RH  021%=      5-min Rain = 0
KGU1 182249Z 30006KT 19/M04 A3005 RMK A01 T01891040  RH  021%=      5-min Rain = 0
KGU1 182250Z 30009KT 19/M04 A3005 RMK A01 T01891037  RH  021%=      5-min Rain = 0
KGU1 182251Z 30007KT 19/M04 A3005 RMK A01 T01891038  RH  021%=      5-min Rain = 0
KGU1 182252Z 30007KT 19/M04 A3005 RMK A01 T01891037  RH  021%=      5-min Rain = 0
KGU1 182253Z 30006KT 19/M04 A3005 RMK A01 T01891038  RH  021%=      5-min Rain = 0
KGU1 182254Z 30004KT 19/M04 A3005 RMK A01 T01891037  RH  021%=      5-min Rain = 0
KGU1 182255Z 30006KT 19/M04 A3005 RMK A01 T01891037  RH  021%=      5-min Rain = 0
KGU1 182256Z 29008KT 19/M04 A3005 RMK A01 T01891037  RH  021%=      5-min Rain = 0
KGU1 182257Z 30007KT 19/M04 A3005 RMK A01 T01881037  RH  022%=      5-min Rain = 0
KGU1 182258Z 30005KT 19/M04 A3005 RMK A01 T01881036  RH  022%=      5-min Rain = 0
KGU1 182259Z 30005KT 19/M04 A3005 RMK A01 T01881036  RH  022%=      5-min Rain = 0
KGU1 182300Z 30005KT 19/M04 A3005 RMK A01 T01881036  RH  022%=      5-min Rain = 0
KGU1 182301Z 29005KT 19/M04 A3005 RMK A01 T01881036  RH  022%=      5-min Rain = 0
KGU1 182302Z 28005KT 19/M04 A3005 RMK A01 T01881035  RH  022%=      5-min Rain = 0
KGU1 182303Z 28007KT 19/M04 A3005 RMK A01 T01881035  RH  022%=      5-min Rain = 0
KGU1 182304Z 27006KT 19/M03 A3005 RMK A01 T01881034  RH  022%=      5-min Rain = 0
KGU1 182305Z 27004KT 19/M03 A3005 RMK A01 T01881034  RH  022%=      5-min Rain = 0
KGU1 182306Z 26003KT 19/M03 A3005 RMK A01 T01881034  RH  022%=      5-min Rain = 0
KGU1 182307Z 27005KT 19/M03 A3005 RMK A01 T01891034  RH  022%=      5-min Rain = 0
KGU1 182308Z 28006KT 19/M04 A3005 RMK A01 T01881036  RH  022%=      5-min Rain = 0
KGU1 182309Z 28005KT 19/M04 A3005 RMK A01 T01871037  RH  022%=      5-min Rain = 0
KGU1 182310Z 27004KT 19/M04 A3005 RMK A01 T01881036  RH  022%=      5-min Rain = 0
KGU1 182311Z 26003KT 19/M04 A3005 RMK A01 T01891035  RH  022%=      5-min Rain = 0
KGU1 182312Z 27003KT 19/M04 A3005 RMK A01 T01901035  RH  022%=      5-min Rain = 0
KGU1 182313Z 27003KT 19/M04 A3005 RMK A01 T01901035  RH  022%=      5-min Rain = 0
KGU1 182314Z 27004KT 19/M04 A3005 RMK A01 T01911035  RH  021%=      5-min Rain = 0
KGU1 182315Z 26003KT 19/M03 A3005 RMK A01 T01901034  RH  022%=      5-min Rain = 0
KGU1 182316Z 26003KT 19/M03 A3005 RMK A01 T01891034  RH  022%=      5-min Rain = 0
KGU1 182317Z 29004KT 19/M03 A3005 RMK A01 T01881034  RH  022%=      5-min Rain = 0
KGU1 182318Z 30004KT 19/M04 A3005 RMK A01 T01861035  RH  022%=      5-min Rain = 0
KGU1 182319Z 28003KT 18/M03 A3005 RMK A01 T01841034  RH  023%=      5-min Rain = 0
KGU1 182320Z 24002KT 18/M03 A3005 RMK A01 T01841033  RH  023%=      5-min Rain = 0
KGU1 182321Z 22003KT 18/M03 A3006 RMK A01 T01831033  RH  023%=      5-min Rain = 0
KGU1 182322Z 23002KT 18/M03 A3006 RMK A01 T01821034  RH  023%=      5-min Rain = 0
KGU1 182323Z 21003KT 18/M03 A3006 RMK A01 T01811034  RH  023%=      5-min Rain = 0
KGU1 182324Z 21003KT 18/M03 A3006 RMK A01 T01801034  RH  023%=      5-min Rain = 0
KGU1 182325Z 23003KT 18/M03 A3006 RMK A01 T01781034  RH  023%=      5-min Rain = 0
KGU1 182326Z 24003KT 18/M03 A3006 RMK A01 T01771034  RH  024%=      5-min Rain = 0
KGU1 182327Z 23003KT 18/M04 A3006 RMK A01 T01761035  RH  024%=      5-min Rain = 0
KGU1 182328Z 25003KT 18/M03 A3006 RMK A01 T01761034  RH  024%=      5-min Rain = 0
KGU1 182329Z 27003KT 18/M04 A3006 RMK A01 T01761035  RH  024%=      5-min Rain = 0
KGU1 182330Z 25003KT 18/M04 A3006 RMK A01 T01761035  RH  024%=      5-min Rain = 0
KGU1 182331Z 27004KT 18/M03 A3006 RMK A01 T01751034  RH  024%=      5-min Rain = 0
KGU1 182332Z 25004KT 17/M04 A3006 RMK A01 T01741035  RH  024%=      5-min Rain = 0
KGU1 182333Z 24004KT 17/M03 A3006 RMK A01 T01721034  RH  024%=      5-min Rain = 0
KGU1 182334Z 23004KT 17/M04 A3006 RMK A01 T01701035  RH  025%=      5-min Rain = 0
KGU1 182335Z 23004KT 17/M04 A3006 RMK A01 T01681035  RH  025%=      5-min Rain = 0
KGU1 182336Z 21005KT 17/M03 A3006 RMK A01 T01651034  RH  025%=      5-min Rain = 0
KGU1 182337Z 22005KT 16/M04 A3006 RMK A01 T01631036  RH  026%=      5-min Rain = 0
KGU1 182338Z 24005KT 16/M04 A3006 RMK A01 T01631039  RH  025%=      5-min Rain = 0
KGU1 182339Z 25005KT 17/M04 A3006 RMK A01 T01651038  RH  025%=      5-min Rain = 0
KGU1 182340Z 26004KT 17/M04 A3006 RMK A01 T01651037  RH  025%=      5-min Rain = 0
KGU1 182341Z 27004KT 16/M04 A3006 RMK A01 T01631037  RH  025%=      5-min Rain = 0
KGU1 182342Z 26004KT 16/M04 A3006 RMK A01 T01611038  RH  025%=      5-min Rain = 0
KGU1 182343Z 25005KT 16/M04 A3006 RMK A01 T01611038  RH  025%=      5-min Rain = 0
KGU1 182344Z 25004KT 16/M04 A3006 RMK A01 T01611038  RH  025%=      5-min Rain = 0
KGU1 182345Z 24005KT 16/M04 A3006 RMK A01 T01611038  RH  025%=      5-min Rain = 0
KGU1 182346Z 26004KT 16/M04 A3006 RMK A01 T01601038  RH  025%=      5-min Rain = 0
KGU1 182347Z 25004KT 16/M04 A3006 RMK A01 T01591038  RH  026%=      5-min Rain = 0
KGU1 182348Z 24006KT 16/M04 A3006 RMK A01 T01581038  RH  026%=      5-min Rain = 0
KGU1 182349Z 24005KT 16/M04 A3006 RMK A01 T01581038  RH  026%=      5-min Rain = 0
KGU1 182350Z 23006KT 16/M04 A3006 RMK A01 T01571038  RH  026%=      5-min Rain = 0
KGU1 182351Z 24006KT 16/M04 A3006 RMK A01 T01571037  RH  026%=      5-min Rain = 0
KGU1 182352Z 24006KT 16/M04 A3006 RMK A01 T01561038  RH  026%=      5-min Rain = 0
KGU1 182353Z 25005KT 16/M04 A3006 RMK A01 T01561038  RH  026%=      5-min Rain = 0
KGU1 182354Z 26004KT 16/M04 A3006 RMK A01 T01561038  RH  026%=      5-min Rain = 0
KGU1 182355Z 26004KT 15/M04 A3006 RMK A01 T01541038  RH  027%=      5-min Rain = 0
KGU1 182356Z 25004KT 15/M04 A3006 RMK A01 T01531037  RH  027%=      5-min Rain = 0
KGU1 182357Z 26004KT 15/M04 A3006 RMK A01 T01511037  RH  027%=      5-min Rain = 0
KGU1 182358Z 27003KT 15/M04 A3006 RMK A01 T01501037  RH  027%=      5-min Rain = 0
KGU1 182359Z 26004KT 15/M04 A3006 RMK A01 T01491037  RH  028%=      5-min Rain = 0
KGU1 190000Z 26004KT 15/M04 A3006 RMK A01 T01471037  RH  028%=      5-min Rain = 0
KGU1 190001Z 25004KT 15/M04 A3006 RMK A01 T01471037  RH  028%=      5-min Rain = 0
KGU1 190002Z 26004KT 15/M04 A3006 RMK A01 T01461037  RH  028%=      5-min Rain = 0
KGU1 190003Z 28005KT 15/M04 A3006 RMK A01 T01451037  RH  028%=      5-min Rain = 0
KGU1 190004Z 28005KT 14/M04 A3006 RMK A01 T01441037  RH  029%=      5-min Rain = 0
KGU1 190005Z 27005KT 14/M04 A3006 RMK A01 T01421037  RH  029%=      5-min Rain = 0
KGU1 190006Z 27006KT 14/M04 A3007 RMK A01 T01411037  RH  029%=      5-min Rain = 0
KGU1 190007Z 26006KT 14/M04 A3007 RMK A01 T01411037  RH  029%=      5-min Rain = 0
KGU1 190008Z 26006KT 14/M04 A3007 RMK A01 T01421037  RH  029%=      5-min Rain = 0
KGU1 190009Z 26006KT 14/M04 A3007 RMK A01 T01441037  RH  029%=      5-min Rain = 0
KGU1 190010Z 26006KT 15/M04 A3007 RMK A01 T01451037  RH  028%=      5-min Rain = 0
KGU1 190011Z 26005KT 15/M04 A3007 RMK A01 T01461038  RH  028%=      5-min Rain = 0
KGU1 190012Z 26005KT 15/M04 A3007 RMK A01 T01471037  RH  028%=      5-min Rain = 0
KGU1 190013Z 26005KT 15/M04 A3007 RMK A01 T01461037  RH  028%=      5-min Rain = 0
KGU1 190014Z 26005KT 14/M04 A3007 RMK A01 T01441037  RH  028%=      5-min Rain = 0
KGU1 190015Z 26006KT 14/M04 A3007 RMK A01 T01431037  RH  029%=      5-min Rain = 0
KGU1 190016Z 26005KT 14/M04 A3007 RMK A01 T01431038  RH  028%=      5-min Rain = 0
KGU1 190017Z 26005KT 15/M04 A3007 RMK A01 T01451037  RH  028%=      5-min Rain = 0
KGU1 190018Z 27005KT 15/M04 A3007 RMK A01 T01451037  RH  028%=      5-min Rain = 0
KGU1 190019Z 27005KT 14/M04 A3007 RMK A01 T01431038  RH  029%=      5-min Rain = 0
KGU1 190020Z 27006KT 14/M04 A3007 RMK A01 T01411038  RH  029%=      5-min Rain = 0
KGU1 190021Z 28007KT 14/M04 A3007 RMK A01 T01411038  RH  029%=      5-min Rain = 0
KGU1 190022Z 28006KT 14/M04 A3007 RMK A01 T01441039  RH  028%=      5-min Rain = 0
KGU1 190023Z 27008KT 14/M04 A3007 RMK A01 T01441038  RH  028%=      5-min Rain = 0
KGU1 190024Z 27008KT 14/M04 A3007 RMK A01 T01441038  RH  028%=      5-min Rain = 0
KGU1 190025Z 27008KT 14/M04 A3007 RMK A01 T01431038  RH  028%=      5-min Rain = 0
KGU1 190026Z 27009KT 14/M04 A3007 RMK A01 T01421038  RH  029%=      5-min Rain = 0
KGU1 190027Z 26008KT 14/M04 A3007 RMK A01 T01421038  RH  029%=      5-min Rain = 0
KGU1 190028Z 27007KT 14/M04 A3007 RMK A01 T01421038  RH  029%=      5-min Rain = 0
KGU1 190029Z 26006KT 14/M04 A3007 RMK A01 T01411038  RH  029%=      5-min Rain = 0
KGU1 190030Z 26006KT 14/M04 A3007 RMK A01 T01391038  RH  029%=      5-min Rain = 0
KGU1 190031Z 26006KT 14/M04 A3007 RMK A01 T01381038  RH  029%=      5-min Rain = 0
KGU1 190032Z 26006KT 14/M04 A3007 RMK A01 T01361038  RH  030%=      5-min Rain = 0
KGU1 190033Z 26006KT 14/M04 A3007 RMK A01 T01351038  RH  030%=      5-min Rain = 0
KGU1 190034Z 26007KT 14/M04 A3007 RMK A01 T01351038  RH  030%=      5-min Rain = 0
KGU1 190035Z 26007KT 14/M04 A3007 RMK A01 T01361038  RH  030%=      5-min Rain = 0
KGU1 190036Z 26007KT 14/M04 A3007 RMK A01 T01371039  RH  030%=      5-min Rain = 0
KGU1 190037Z 26006KT 14/M04 A3007 RMK A01 T01381039  RH  029%=      5-min Rain = 0
KGU1 190038Z 25006KT 14/M04 A3007 RMK A01 T01381039  RH  029%=      5-min Rain = 0
KGU1 190039Z 24006KT 14/M04 A3007 RMK A01 T01381039  RH  029%=      5-min Rain = 0
KGU1 190040Z 23005KT 14/M04 A3007 RMK A01 T01381039  RH  029%=      5-min Rain = 0
KGU1 190041Z 23006KT 14/M04 A3007 RMK A01 T01391039  RH  029%=      5-min Rain = 0
KGU1 190042Z 24007KT 14/M04 A3007 RMK A01 T01401039  RH  029%=      5-min Rain = 0
KGU1 190043Z 25008KT 14/M04 A3007 RMK A01 T01411039  RH  029%=      5-min Rain = 0
KGU1 190044Z 25007KT 14/M04 A3007 RMK A01 T01431039  RH  028%=      5-min Rain = 0
KGU1 190045Z 25008KT 14/M04 A3007 RMK A01 T01441040  RH  028%=      5-min Rain = 0
KGU1 190046Z 26006KT 15/M04 A3007 RMK A01 T01451040  RH  028%=      5-min Rain = 0
KGU1 190047Z 26005KT 15/M04 A3007 RMK A01 T01451039  RH  028%=      5-min Rain = 0
KGU1 190048Z 26005KT 15/M04 A3007 RMK A01 T01451039  RH  028%=      5-min Rain = 0
KGU1 190049Z 23004KT 14/M04 A3007 RMK A01 T01441039  RH  028%=      5-min Rain = 0
KGU1 190050Z 25003KT 14/M04 A3007 RMK A01 T01441039  RH  028%=      5-min Rain = 0
KGU1 190051Z 27004KT 14/M04 A3007 RMK A01 T01441040  RH  028%=      5-min Rain = 0
KGU1 190052Z 27006KT 14/M04 A3007 RMK A01 T01431039  RH  028%=      5-min Rain = 0
KGU1 190053Z 26007KT 14/M04 A3007 RMK A01 T01421040  RH  028%=      5-min Rain = 0
KGU1 190054Z 26010KT 14/M04 A3007 RMK A01 T01431040  RH  028%=      5-min Rain = 0
KGU1 190055Z 25008KT 15/M04 A3007 RMK A01 T01451040  RH  028%=      5-min Rain = 0
KGU1 190056Z 25007KT 15/M04 A3007 RMK A01 T01471041  RH  027%=      5-min Rain = 0
KGU1 190057Z 25007KT 15/M04 A3007 RMK A01 T01481040  RH  027%=      5-min Rain = 0
KGU1 190058Z 26007KT 15/M04 A3007 RMK A01 T01471040  RH  027%=      5-min Rain = 0
KGU1 190059Z 25007KT 15/M04 A3008 RMK A01 T01471040  RH  027%=      5-min Rain = 0
KGU1 190100Z 26007KT 15/M04 A3008 RMK A01 T01471040  RH  027%=      5-min Rain = 0
KGU1 190101Z 26008KT 15/M04 A3008 RMK A01 T01481040  RH  027%=      5-min Rain = 0
KGU1 190102Z 27007KT 15/M04 A3008 RMK A01 T01471040  RH  027%=      5-min Rain = 0
KGU1 190103Z 27008KT 14/M04 A3008 RMK A01 T01441040  RH  028%=      5-min Rain = 0
KGU1 190104Z 27006KT 14/M04 A3008 RMK A01 T01431040  RH  028%=      5-min Rain = 0
KGU1 190105Z 28007KT 14/M04 A3008 RMK A01 T01411040  RH  028%=      5-min Rain = 0
KGU1 190106Z 28007KT 14/M04 A3008 RMK A01 T01401040  RH  029%=      5-min Rain = 0
KGU1 190107Z 28007KT 14/M04 A3008 RMK A01 T01391040  RH  029%=      5-min Rain = 0
KGU1 190108Z 28007KT 14/M04 A3008 RMK A01 T01381040  RH  029%=      5-min Rain = 0
KGU1 190109Z 28007KT 14/M04 A3008 RMK A01 T01381040  RH  029%=      5-min Rain = 0
KGU1 190110Z 29009KT 14/M04 A3008 RMK A01 T01381040  RH  029%=      5-min Rain = 0
KGU1 190111Z 28009KT 14/M04 A3008 RMK A01 T01401040  RH  029%=      5-min Rain = 0
KGU1 190112Z 29009KT 14/M04 A3008 RMK A01 T01421040  RH  028%=      5-min Rain = 0
KGU1 190113Z 29008KT 14/M04 A3008 RMK A01 T01421040  RH  028%=      5-min Rain = 0
KGU1 190114Z 28007KT 14/M04 A3008 RMK A01 T01421040  RH  028%=      5-min Rain = 0
KGU1 190115Z 29006KT 14/M04 A3008 RMK A01 T01411040  RH  028%=      5-min Rain = 0
KGU1 190116Z 29007KT 14/M04 A3008 RMK A01 T01411040  RH  029%=      5-min Rain = 0
KGU1 190117Z 29008KT 14/M04 A3008 RMK A01 T01401040  RH  029%=      5-min Rain = 0
KGU1 190118Z 29007KT 14/M04 A3008 RMK A01 T01411040  RH  028%=      5-min Rain = 0
KGU1 190119Z 29007KT 14/M04 A3008 RMK A01 T01411040  RH  028%=      5-min Rain = 0
KGU1 190120Z 29007KT 14/M04 A3008 RMK A01 T01411040  RH  028%=      5-min Rain = 0
KGU1 190121Z 29010KT 14/M04 A3008 RMK A01 T01431040  RH  028%=      5-min Rain = 0
KGU1 190122Z 30010KT 14/M04 A3008 RMK A01 T01441040  RH  028%=      5-min Rain = 0
KGU1 190123Z 29009KT 15/M04 A3008 RMK A01 T01461040  RH  027%=      5-min Rain = 0
KGU1 190124Z 30009KT 15/M04 A3008 RMK A01 T01461040  RH  028%=      5-min Rain = 0
KGU1 190125Z 30009KT 15/M04 A3008 RMK A01 T01451040  RH  028%=      5-min Rain = 0
KGU1 190126Z 30009KT 15/M04 A3008 RMK A01 T01451039  RH  028%=      5-min Rain = 0
KGU1 190127Z 30009KT 14/M04 A3008 RMK A01 T01441040  RH  028%=      5-min Rain = 0
KGU1 190128Z 30008KT 15/M04 A3008 RMK A01 T01451040  RH  028%=      5-min Rain = 0
KGU1 190129Z 30010KT 15/M04 A3008 RMK A01 T01451040  RH  028%=      5-min Rain = 0
KGU1 190130Z 30009KT 15/M04 A3008 RMK A01 T01461040  RH  028%=      5-min Rain = 0
KGU1 190131Z 30009KT 15/M04 A3008 RMK A01 T01461040  RH  028%=      5-min Rain = 0
KGU1 190132Z 30008KT 15/M04 A3008 RMK A01 T01461040  RH  028%=      5-min Rain = 0
KGU1 190133Z 31007KT 15/M04 A3008 RMK A01 T01461040  RH  028%=      5-min Rain = 0
KGU1 190134Z 31008KT 15/M04 A3008 RMK A01 T01451040  RH  028%=      5-min Rain = 0
KGU1 190135Z 30008KT 15/M04 A3008 RMK A01 T01451040  RH  028%=      5-min Rain = 0
KGU1 190136Z 30007KT 15/M04 A3008 RMK A01 T01451039  RH  028%=      5-min Rain = 0
KGU1 190137Z 31007KT 14/M04 A3008 RMK A01 T01441040  RH  028%=      5-min Rain = 0
KGU1 190138Z 30009KT 14/M04 A3008 RMK A01 T01441040  RH  028%=      5-min Rain = 0
KGU1 190139Z 30009KT 14/M04 A3008 RMK A01 T01441040  RH  028%=      5-min Rain = 0
KGU1 190140Z 30009KT 15/M04 A3008 RMK A01 T01451040  RH  028%=      5-min Rain = 0
KGU1 190141Z 30011KT 15/M04 A3008 RMK A01 T01451039  RH  028%=      5-min Rain = 0
KGU1 190142Z 30010KT 15/M04 A3008 RMK A01 T01451039  RH  028%=      5-min Rain = 0
KGU1 190143Z 30011KT 15/M04 A3008 RMK A01 T01451039  RH  028%=      5-min Rain = 0
KGU1 190144Z 30011KT 15/M04 A3008 RMK A01 T01451040  RH  028%=      5-min Rain = 0
KGU1 190145Z 30010KT 15/M04 A3008 RMK A01 T01461040  RH  028%=      5-min Rain = 0
KGU1 190146Z 30011KT 15/M04 A3008 RMK A01 T01461040  RH  027%=      5-min Rain = 0
KGU1 190147Z 30010KT 15/M04 A3008 RMK A01 T01461040  RH  027%=      5-min Rain = 0
KGU1 190148Z 30010KT 15/M04 A3008 RMK A01 T01461040  RH  028%=      5-min Rain = 0
KGU1 190149Z 30011KT 15/M04 A3008 RMK A01 T01461040  RH  027%=      5-min Rain = 0
KGU1 190150Z 30010KT 15/M04 A3008 RMK A01 T01461040  RH  028%=      5-min Rain = 0
KGU1 190151Z 30010KT 15/M04 A3008 RMK A01 T01461040  RH  028%=      5-min Rain = 0
KGU1 190152Z 30010KT 15/M04 A3008 RMK A01 T01461040  RH  027%=      5-min Rain = 0
KGU1 190153Z 30010KT 15/M04 A3008 RMK A01 T01471040  RH  027%=      5-min Rain = 0
KGU1 190154Z 30011KT 15/M04 A3008 RMK A01 T01471040  RH  027%=      5-min Rain = 0
KGU1 190155Z 30010KT 15/M04 A3008 RMK A01 T01471040  RH  027%=      5-min Rain = 0
KGU1 190156Z 30010KT 15/M04 A3008 RMK A01 T01471040  RH  027%=      5-min Rain = 0
KGU1 190157Z 30010KT 15/M04 A3008 RMK A01 T01471040  RH  027%=      5-min Rain = 0
KGU1 190158Z 30010KT 15/M04 A3008 RMK A01 T01471040  RH  027%=      5-min Rain = 0
KGU1 190159Z 29010KT 15/M04 A3008 RMK A01 T01471040  RH  027%=      5-min Rain = 0
KGU1 190200Z 29010KT 15/M04 A3008 RMK A01 T01471040  RH  027%=      5-min Rain = 0
KGU1 190201Z 29009KT 15/M04 A3008 RMK A01 T01461040  RH  027%=      5-min Rain = 0
KGU1 190202Z 29010KT 15/M04 A3008 RMK A01 T01451040  RH  028%=      5-min Rain = 0
KGU1 190203Z 29011KT 15/M04 A3008 RMK A01 T01451040  RH  028%=      5-min Rain = 0
KGU1 190204Z 29010KT 14/M04 A3008 RMK A01 T01441040  RH  028%=      5-min Rain = 0
KGU1 190205Z 29010KT 14/M04 A3008 RMK A01 T01431040  RH  028%=      5-min Rain = 0
KGU1 190206Z 29010KT 14/M04 A3008 RMK A01 T01421040  RH  028%=      5-min Rain = 0
KGU1 190207Z 30011KT 14/M04 A3008 RMK A01 T01421040  RH  028%=      5-min Rain = 0
KGU1 190208Z 30011KT 14/M04 A3008 RMK A01 T01421040  RH  028%=      5-min Rain = 0
KGU1 190209Z 30011KT 14/M04 A3008 RMK A01 T01421040  RH  028%=      5-min Rain = 0
KGU1 190210Z 30011KT 14/M04 A3008 RMK A01 T01421040  RH  028%=      5-min Rain = 0
KGU1 190211Z 30012KT 14/M04 A3008 RMK A01 T01421040  RH  028%=      5-min Rain = 0
KGU1 190212Z 30012KT 14/M04 A3008 RMK A01 T01431040  RH  028%=      5-min Rain = 0
KGU1 190213Z 29011KT 14/M04 A3008 RMK A01 T01431040  RH  028%=      5-min Rain = 0
KGU1 190214Z 30012KT 14/M04 A3008 RMK A01 T01431040  RH  028%=      5-min Rain = 0
KGU1 190215Z 30012KT 14/M04 A3008 RMK A01 T01431040  RH  028%=      5-min Rain = 0
KGU1 190216Z 30012KT 14/M04 A3008 RMK A01 T01431040  RH  028%=      5-min Rain = 0
KGU1 190217Z 29012KT 14/M04 A3008 RMK A01 T01441040  RH  028%=      5-min Rain = 0
KGU1 190218Z 30011KT 14/M04 A3008 RMK A01 T01441040  RH  028%=      5-min Rain = 0
KGU1 190219Z 30012KT 14/M04 A3008 RMK A01 T01441040  RH  028%=      5-min Rain = 0
KGU1 190220Z 30012KT 14/M04 A3008 RMK A01 T01441040  RH  028%=      5-min Rain = 0
KGU1 190221Z 30012KT 14/M04 A3008 RMK A01 T01431040  RH  028%=      5-min Rain = 0
KGU1 190222Z 30012KT 14/M04 A3008 RMK A01 T01441040  RH  028%=      5-min Rain = 0
KGU1 190223Z 30011KT 14/M04 A3008 RMK A01 T01441040  RH  028%=      5-min Rain = 0
KGU1 190224Z 30011KT 14/M04 A3008 RMK A01 T01441040  RH  028%=      5-min Rain = 0
KGU1 190225Z 30012KT 14/M04 A3008 RMK A01 T01441040  RH  028%=      5-min Rain = 0
KGU1 190226Z 30012KT 15/M04 A3008 RMK A01 T01451040  RH  028%=      5-min Rain = 0
KGU1 190227Z 29012KT 15/M04 A3008 RMK A01 T01461040  RH  027%=      5-min Rain = 0
KGU1 190228Z 30012KT 15/M04 A3008 RMK A01 T01451040  RH  028%=      5-min Rain = 0
KGU1 190229Z 30012KT 15/M04 A3008 RMK A01 T01451040  RH  028%=      5-min Rain = 0
KGU1 190230Z 29012KT 15/M04 A3008 RMK A01 T01451040  RH  028%=      5-min Rain = 0
KGU1 190231Z 29011KT 15/M04 A3008 RMK A01 T01451040  RH  028%=      5-min Rain = 0
KGU1 190232Z 29011KT 14/M04 A3008 RMK A01 T01441041  RH  028%=      5-min Rain = 0
KGU1 190233Z 29011KT 14/M04 A3008 RMK A01 T01441040  RH  028%=      5-min Rain = 0
KGU1 190234Z 29011KT 15/M04 A3008 RMK A01 T01451040  RH  028%=      5-min Rain = 0
KGU1 190235Z 29010KT 15/M04 A3008 RMK A01 T01451041  RH  028%=      5-min Rain = 0
KGU1 190236Z 29010KT 15/M04 A3008 RMK A01 T01451040  RH  028%=      5-min Rain = 0
KGU1 190237Z 29010KT 14/M04 A3008 RMK A01 T01431040  RH  028%=      5-min Rain = 0
KGU1 190238Z 29011KT 14/M04 A3008 RMK A01 T01421040  RH  028%=      5-min Rain = 0
KGU1 190239Z 29011KT 14/M04 A3008 RMK A01 T01421040  RH  028%=      5-min Rain = 0
KGU1 190240Z 29010KT 14/M04 A3008 RMK A01 T01421040  RH  028%=      5-min Rain = 0
KGU1 190241Z 29010KT 14/M04 A3008 RMK A01 T01421040  RH  028%=      5-min Rain = 0
KGU1 190242Z 29010KT 14/M04 A3008 RMK A01 T01421041  RH  028%=      5-min Rain = 0
KGU1 190243Z 29011KT 14/M04 A3008 RMK A01 T01421040  RH  028%=      5-min Rain = 0
KGU1 190244Z 29008KT 14/M04 A3008 RMK A01 T01421041  RH  028%=      5-min Rain = 0
KGU1 190245Z 29010KT 14/M04 A3008 RMK A01 T01421040  RH  028%=      5-min Rain = 0
KGU1 190246Z 29010KT 14/M04 A3008 RMK A01 T01411040  RH  028%=      5-min Rain = 0
KGU1 190247Z 29011KT 14/M04 A3008 RMK A01 T01411040  RH  028%=      5-min Rain = 0
KGU1 190248Z 29009KT 14/M04 A3008 RMK A01 T01421040  RH  028%=      5-min Rain = 0
KGU1 190249Z 30009KT 14/M04 A3008 RMK A01 T01411041  RH  028%=      5-min Rain = 0
KGU1 190250Z 30010KT 14/M04 A3009 RMK A01 T01411040  RH  028%=      5-min Rain = 0
KGU1 190251Z 30010KT 14/M04 A3009 RMK A01 T01421040  RH  028%=      5-min Rain = 0
KGU1 190252Z 30009KT 14/M04 A3009 RMK A01 T01421040  RH  028%=      5-min Rain = 0
KGU1 190253Z 30010KT 14/M04 A3009 RMK A01 T01431040  RH  028%=      5-min Rain = 0
KGU1 190254Z 30011KT 15/M04 A3009 RMK A01 T01451041  RH  028%=      5-min Rain = 0
KGU1 190255Z 30010KT 15/M04 A3008 RMK A01 T01461040  RH  028%=      5-min Rain = 0
KGU1 190256Z 30010KT 15/M04 A3008 RMK A01 T01451040  RH  028%=      5-min Rain = 0
KGU1 190257Z 29011KT 15/M04 A3008 RMK A01 T01451040  RH  028%=      5-min Rain = 0
KGU1 190258Z 30012KT 15/M04 A3008 RMK A01 T01451040  RH  028%=      5-min Rain = 0
KGU1 190259Z 30012KT 15/M04 A3008 RMK A01 T01451040  RH  028%=      5-min Rain = 0
KGU1 190300Z 30010KT 15/M04 A3009 RMK A01 T01451040  RH  028%=      5-min Rain = 0
KGU1 190301Z 30011KT 15/M04 A3009 RMK A01 T01451040  RH  028%=      5-min Rain = 0
KGU1 190302Z 29010KT 14/M04 A3009 RMK A01 T01441040  RH  028%=      5-min Rain = 0
KGU1 190303Z 30012KT 14/M04 A3009 RMK A01 T01431040  RH  028%=      5-min Rain = 0
KGU1 190304Z 30011KT 14/M04 A3009 RMK A01 T01441039  RH  028%=      5-min Rain = 0
KGU1 190305Z 30010KT 14/M04 A3009 RMK A01 T01431040  RH  028%=      5-min Rain = 0
KGU1 190306Z 30012KT 14/M04 A3009 RMK A01 T01431040  RH  028%=      5-min Rain = 0
KGU1 190307Z 30011KT 15/M04 A3009 RMK A01 T01451040  RH  028%=      5-min Rain = 0
KGU1 190308Z 30011KT 15/M04 A3009 RMK A01 T01451040  RH  028%=      5-min Rain = 0
KGU1 190309Z 30010KT 15/M04 A3009 RMK A01 T01461040  RH  028%=      5-min Rain = 0
KGU1 190310Z 30011KT 15/M04 A3009 RMK A01 T01461040  RH  028%=      5-min Rain = 0
KGU1 190311Z 30011KT 15/M04 A3009 RMK A01 T01471040  RH  027%=      5-min Rain = 0
KGU1 190312Z 30011KT 15/M04 A3009 RMK A01 T01471040  RH  028%=      5-min Rain = 0
KGU1 190313Z 30011KT 15/M04 A3009 RMK A01 T01471040  RH  027%=      5-min Rain = 0
KGU1 190314Z 30011KT 15/M04 A3009 RMK A01 T01461039  RH  028%=      5-min Rain = 0
KGU1 190315Z 29010KT 15/M04 A3009 RMK A01 T01461039  RH  028%=      5-min Rain = 0
KGU1 190316Z 29009KT 14/M04 A3009 RMK A01 T01441039  RH  028%=      5-min Rain = 0
KGU1 190317Z 29008KT 14/M04 A3009 RMK A01 T01431039  RH  028%=      5-min Rain = 0
KGU1 190318Z 26006KT 14/M04 A3009 RMK A01 T01421039  RH  029%=      5-min Rain = 0
KGU1 190319Z 23006KT 14/M04 A3009 RMK A01 T01391039  RH  029%=      5-min Rain = 0
KGU1 190320Z 22006KT 14/M04 A3009 RMK A01 T01371039  RH  029%=      5-min Rain = 0
KGU1 190321Z 24005KT 14/M04 A3009 RMK A01 T01381040  RH  029%=      5-min Rain = 0
KGU1 190322Z 24006KT 14/M04 A3009 RMK A01 T01391040  RH  029%=      5-min Rain = 0
KGU1 190323Z 25006KT 14/M04 A3009 RMK A01 T01411040  RH  029%=      5-min Rain = 0
KGU1 190324Z 27008KT 14/M04 A3009 RMK A01 T01431039  RH  028%=      5-min Rain = 0
KGU1 190325Z 27007KT 15/M04 A3009 RMK A01 T01461040  RH  027%=      5-min Rain = 0
KGU1 190326Z 27007KT 15/M04 A3009 RMK A01 T01481039  RH  027%=      5-min Rain = 0
KGU1 190327Z 28008KT 15/M04 A3009 RMK A01 T01461039  RH  028%=      5-min Rain = 0
KGU1 190328Z 26007KT 14/M04 A3009 RMK A01 T01431039  RH  028%=      5-min Rain = 0
KGU1 190329Z 28008KT 14/M04 A3009 RMK A01 T01421038  RH  028%=      5-min Rain = 0
KGU1 190330Z 27009KT 14/M04 A3009 RMK A01 T01421038  RH  029%=      5-min Rain = 0
KGU1 190331Z 25007KT 14/M04 A3009 RMK A01 T01421038  RH  029%=      5-min Rain = 0
KGU1 190332Z 24007KT 14/M04 A3009 RMK A01 T01421039  RH  028%=      5-min Rain = 0
KGU1 190333Z 25006KT 14/M04 A3009 RMK A01 T01421039  RH  028%=      5-min Rain = 0
KGU1 190334Z 24005KT 14/M04 A3009 RMK A01 T01421039  RH  028%=      5-min Rain = 0
KGU1 190335Z 22004KT 14/M04 A3009 RMK A01 T01421040  RH  028%=      5-min Rain = 0
KGU1 190336Z 23004KT 14/M04 A3009 RMK A01 T01421040  RH  028%=      5-min Rain = 0
KGU1 190337Z 24004KT 14/M04 A3009 RMK A01 T01421041  RH  028%=      5-min Rain = 0
KGU1 190338Z 24005KT 14/M04 A3009 RMK A01 T01421041  RH  028%=      5-min Rain = 0
KGU1 190339Z 25005KT 14/M04 A3009 RMK A01 T01421041  RH  028%=      5-min Rain = 0
KGU1 190340Z 26004KT 14/M04 A3009 RMK A01 T01421041  RH  028%=      5-min Rain = 0
KGU1 190341Z 26004KT 14/M04 A3009 RMK A01 T01411040  RH  028%=      5-min Rain = 0
KGU1 190342Z 26005KT 14/M04 A3009 RMK A01 T01391040  RH  029%=      5-min Rain = 0
KGU1 190343Z 27006KT 14/M04 A3009 RMK A01 T01361040  RH  029%=      5-min Rain = 0
KGU1 190344Z 28007KT 13/M04 A3009 RMK A01 T01321040  RH  030%=      5-min Rain = 0
KGU1 190345Z 28009KT 13/M04 A3009 RMK A01 T01311039  RH  031%=      5-min Rain = 0
KGU1 190346Z 27009KT 13/M04 A3009 RMK A01 T01331038  RH  030%=      5-min Rain = 0
KGU1 190347Z 28011KT 13/M04 A3009 RMK A01 T01341038  RH  030%=      5-min Rain = 0
KGU1 190348Z 28011KT 14/M04 A3009 RMK A01 T01351038  RH  030%=      5-min Rain = 0
KGU1 190349Z 28010KT 14/M04 A3009 RMK A01 T01371038  RH  030%=      5-min Rain = 0
KGU1 190350Z 28009KT 14/M04 A3009 RMK A01 T01371038  RH  029%=      5-min Rain = 0
KGU1 190351Z 27007KT 14/M04 A3009 RMK A01 T01361039  RH  030%=      5-min Rain = 0
KGU1 190352Z 26007KT 14/M04 A3009 RMK A01 T01351039  RH  030%=      5-min Rain = 0
KGU1 190353Z 26007KT 13/M04 A3009 RMK A01 T01331039  RH  030%=      5-min Rain = 0
KGU1 190354Z 24007KT 13/M04 A3009 RMK A01 T01301039  RH  031%=      5-min Rain = 0
KGU1 190355Z 24007KT 13/M04 A3009 RMK A01 T01301039  RH  031%=      5-min Rain = 0
KGU1 190356Z 24006KT 13/M04 A3009 RMK A01 T01341039  RH  030%=      5-min Rain = 0
KGU1 190357Z 24006KT 14/M04 A3009 RMK A01 T01401040  RH  029%=      5-min Rain = 0
KGU1 190358Z 25007KT 14/M04 A3009 RMK A01 T01431040  RH  028%=      5-min Rain = 0
KGU1 190359Z 25007KT 14/M04 A3009 RMK A01 T01441039  RH  028%=      5-min Rain = 0
KGU1 190400Z 24006KT 14/M04 A3009 RMK A01 T01441039  RH  028%=      5-min Rain = 0
KGU1 190401Z 25007KT 15/M04 A3009 RMK A01 T01451039  RH  028%=      5-min Rain = 0
KGU1 190402Z 26009KT 15/M04 A3009 RMK A01 T01451038  RH  028%=      5-min Rain = 0
KGU1 190403Z 26010KT 15/M04 A3009 RMK A01 T01451038  RH  028%=      5-min Rain = 0
KGU1 190404Z 26009KT 15/M04 A3009 RMK A01 T01461037  RH  028%=      5-min Rain = 0
KGU1 190405Z 26008KT 15/M04 A3009 RMK A01 T01461038  RH  028%=      5-min Rain = 0
KGU1 190406Z 27007KT 15/M04 A3009 RMK A01 T01481038  RH  028%=      5-min Rain = 0
KGU1 190407Z 27009KT 15/M04 A3009 RMK A01 T01471037  RH  028%=      5-min Rain = 0
KGU1 190408Z 27007KT 14/M04 A3009 RMK A01 T01441037  RH  028%=      5-min Rain = 0
KGU1 190409Z 26006KT 14/M04 A3009 RMK A01 T01431038  RH  029%=      5-min Rain = 0
KGU1 190410Z 27006KT 14/M04 A3009 RMK A01 T01421038  RH  029%=      5-min Rain = 0
KGU1 190411Z 27006KT 14/M04 A3009 RMK A01 T01421039  RH  028%=      5-min Rain = 0
KGU1 190412Z 27006KT 14/M04 A3009 RMK A01 T01431039  RH  028%=      5-min Rain = 0
KGU1 190413Z 26007KT 14/M04 A3009 RMK A01 T01441039  RH  028%=      5-min Rain = 0
KGU1 190414Z 26007KT 14/M04 A3009 RMK A01 T01441038  RH  028%=      5-min Rain = 0
KGU1 190415Z 26007KT 15/M04 A3009 RMK A01 T01451039  RH  028%=      5-min Rain = 0
KGU1 190416Z 26007KT 15/M04 A3009 RMK A01 T01461038  RH  028%=      5-min Rain = 0
KGU1 190417Z 27007KT 15/M04 A3009 RMK A01 T01461038  RH  028%=      5-min Rain = 0
KGU1 190418Z 27007KT 15/M04 A3009 RMK A01 T01461039  RH  028%=      5-min Rain = 0
KGU1 190419Z 27008KT 15/M04 A3009 RMK A01 T01461037  RH  028%=      5-min Rain = 0
KGU1 190420Z 26007KT 14/M04 A3009 RMK A01 T01441037  RH  029%=      5-min Rain = 0
KGU1 190421Z 26005KT 14/M04 A3009 RMK A01 T01411037  RH  029%=      5-min Rain = 0
KGU1 190422Z 26006KT 14/M04 A3009 RMK A01 T01381038  RH  029%=      5-min Rain = 0
KGU1 190423Z 26006KT 14/M04 A3009 RMK A01 T01371038  RH  030%=      5-min Rain = 0
KGU1 190424Z 27007KT 14/M04 A3009 RMK A01 T01381038  RH  030%=      5-min Rain = 0
KGU1 190425Z 27006KT 14/M04 A3009 RMK A01 T01361038  RH  030%=      5-min Rain = 0
KGU1 190426Z 27007KT 14/M04 A3009 RMK A01 T01351038  RH  030%=      5-min Rain = 0
KGU1 190427Z 27007KT 13/M04 A3009 RMK A01 T01341038  RH  030%=      5-min Rain = 0
KGU1 190428Z 26007KT 13/M04 A3009 RMK A01 T01321038  RH  031%=      5-min Rain = 0
KGU1 190429Z 26006KT 13/M04 A3009 RMK A01 T01311037  RH  031%=      5-min Rain = 0
KGU1 190430Z 25006KT 13/M04 A3009 RMK A01 T01291038  RH  031%=      5-min Rain = 0
KGU1 190431Z 24009KT 13/M04 A3009 RMK A01 T01301036  RH  032%=      5-min Rain = 0
KGU1 190432Z 24008KT 13/M04 A3009 RMK A01 T01331035  RH  031%=      5-min Rain = 0
KGU1 190433Z 25007KT 14/M04 A3009 RMK A01 T01351035  RH  031%=      5-min Rain = 0
KGU1 190434Z 25007KT 13/M04 A3009 RMK A01 T01341035  RH  031%=      5-min Rain = 0
KGU1 190435Z 25007KT 13/M04 A3009 RMK A01 T01331035  RH  031%=      5-min Rain = 0
KGU1 190436Z 25008KT 13/M04 A3009 RMK A01 T01331035  RH  031%=      5-min Rain = 0
KGU1 190437Z 25008KT 13/M04 A3009 RMK A01 T01341035  RH  031%=      5-min Rain = 0
KGU1 190438Z 25009KT 14/M04 A3009 RMK A01 T01351035  RH  031%=      5-min Rain = 0
KGU1 190439Z 25008KT 14/M04 A3009 RMK A01 T01361036  RH  030%=      5-min Rain = 0
KGU1 190440Z 25007KT 14/M04 A3009 RMK A01 T01371035  RH  030%=      5-min Rain = 0
KGU1 190441Z 24009KT 14/M04 A3009 RMK A01 T01371035  RH  030%=      5-min Rain = 0
KGU1 190442Z 23011KT 14/M03 A3009 RMK A01 T01391034  RH  030%=      5-min Rain = 0
KGU1 190443Z 23009KT 14/M03 A3009 RMK A01 T01411034  RH  030%=      5-min Rain = 0
KGU1 190444Z 23009KT 14/M03 A3009 RMK A01 T01411034  RH  030%=      5-min Rain = 0
KGU1 190445Z 23010KT 14/M04 A3009 RMK A01 T01411035  RH  030%=      5-min Rain = 0
KGU1 190446Z 24010KT 14/M04 A3009 RMK A01 T01421035  RH  029%=      5-min Rain = 0
KGU1 190447Z 24010KT 14/M04 A3009 RMK A01 T01441035  RH  029%=      5-min Rain = 0
KGU1 190448Z 24010KT 14/M03 A3009 RMK A01 T01441034  RH  029%=      5-min Rain = 0
KGU1 190449Z 25009KT 14/M04 A3009 RMK A01 T01441035  RH  029%=      5-min Rain = 0
KGU1 190450Z 25009KT 14/M03 A3009 RMK A01 T01421034  RH  029%=      5-min Rain = 0
KGU1 190451Z 26008KT 14/M04 A3009 RMK A01 T01401035  RH  030%=      5-min Rain = 0
KGU1 190452Z 26008KT 14/M04 A3009 RMK A01 T01381035  RH  030%=      5-min Rain = 0
KGU1 190453Z 26007KT 14/M04 A3009 RMK A01 T01351035  RH  031%=      5-min Rain = 0
KGU1 190454Z 24008KT 13/M04 A3009 RMK A01 T01341035  RH  031%=      5-min Rain = 0
KGU1 190455Z 24011KT 13/M04 A3009 RMK A01 T01341035  RH  031%=      5-min Rain = 0
KGU1 190456Z 24011KT 14/M04 A3009 RMK A01 T01361035  RH  030%=      5-min Rain = 0
KGU1 190457Z 23009KT 14/M04 A3009 RMK A01 T01391035  RH  030%=      5-min Rain = 0
KGU1 190458Z 23009KT 14/M04 A3009 RMK A01 T01401035  RH  030%=      5-min Rain = 0
KGU1 190459Z 23006KT 14/M04 A3009 RMK A01 T01401035  RH  030%=      5-min Rain = 0
KGU1 190500Z 23008KT 14/M04 A3009 RMK A01 T01391035  RH  030%=      5-min Rain = 0
KGU1 190501Z 22009KT 14/M04 A3009 RMK A01 T01391035  RH  030%=      5-min Rain = 0
KGU1 190502Z 24010KT 14/M04 A3009 RMK A01 T01401035  RH  030%=      5-min Rain = 0
KGU1 190503Z 24009KT 14/M04 A3009 RMK A01 T01411035  RH  029%=      5-min Rain = 0
KGU1 190504Z 24008KT 14/M04 A3009 RMK A01 T01421035  RH  029%=      5-min Rain = 0
KGU1 190505Z 25008KT 14/M04 A3009 RMK A01 T01421035  RH  029%=      5-min Rain = 0
KGU1 190506Z 25007KT 14/M04 A3009 RMK A01 T01411036  RH  029%=      5-min Rain = 0
KGU1 190507Z 25008KT 14/M04 A3009 RMK A01 T01401036  RH  030%=      5-min Rain = 0
KGU1 190508Z 25008KT 14/M04 A3009 RMK A01 T01401036  RH  030%=      5-min Rain = 0
KGU1 190509Z 25008KT 14/M04 A3009 RMK A01 T01391036  RH  030%=      5-min Rain = 0
KGU1 190510Z 25008KT 14/M04 A3009 RMK A01 T01381036  RH  030%=      5-min Rain = 0
KGU1 190511Z 25009KT 14/M04 A3009 RMK A01 T01371036  RH  030%=      5-min Rain = 0
KGU1 190512Z 26009KT 14/M04 A3009 RMK A01 T01371036  RH  030%=      5-min Rain = 0
KGU1 190513Z 25008KT 14/M04 A3009 RMK A01 T01361036  RH  030%=      5-min Rain = 0
KGU1 190514Z 25007KT 14/M04 A3009 RMK A01 T01361036  RH  030%=      5-min Rain = 0
KGU1 190515Z 25006KT 14/M04 A301 RMK A01 T01361036  RH  030%=      5-min Rain = 0
KGU1 190516Z 24008KT 14/M04 A301 RMK A01 T01361036  RH  030%=      5-min Rain = 0
KGU1 190517Z 23007KT 14/M04 A3009 RMK A01 T01381037  RH  030%=      5-min Rain = 0
KGU1 190518Z 25006KT 14/M04 A301 RMK A01 T01421037  RH  029%=      5-min Rain = 0
KGU1 190519Z 25008KT 14/M04 A3009 RMK A01 T01431037  RH  029%=      5-min Rain = 0
KGU1 190520Z 26008KT 15/M04 A3009 RMK A01 T01471037  RH  028%=      5-min Rain = 0
KGU1 190521Z 27008KT 15/M04 A3009 RMK A01 T01501037  RH  027%=      5-min Rain = 0
KGU1 190522Z 27008KT 15/M04 A3009 RMK A01 T01491037  RH  028%=      5-min Rain = 0
KGU1 190523Z 27008KT 15/M04 A3009 RMK A01 T01501037  RH  027%=      5-min Rain = 0
KGU1 190524Z 27008KT 15/M04 A3009 RMK A01 T01501037  RH  027%=      5-min Rain = 0
KGU1 190525Z 25008KT 15/M04 A3009 RMK A01 T01501037  RH  027%=      5-min Rain = 0
KGU1 190526Z 26007KT 15/M04 A3009 RMK A01 T01501037  RH  027%=      5-min Rain = 0
KGU1 190527Z 27008KT 15/M04 A3009 RMK A01 T01491036  RH  028%=      5-min Rain = 0
KGU1 190528Z 28009KT 15/M04 A3009 RMK A01 T01481037  RH  028%=      5-min Rain = 0
KGU1 190529Z 27008KT 15/M04 A3009 RMK A01 T01461036  RH  028%=      5-min Rain = 0
KGU1 190530Z 25006KT 14/M04 A3009 RMK A01 T01431036  RH  029%=      5-min Rain = 0
KGU1 190531Z 26006KT 14/M04 A3009 RMK A01 T01431036  RH  029%=      5-min Rain = 0
KGU1 190532Z 26006KT 14/M04 A3009 RMK A01 T01431037  RH  029%=      5-min Rain = 0
KGU1 190533Z 28007KT 14/M04 A3009 RMK A01 T01421037  RH  029%=      5-min Rain = 0
KGU1 190534Z 28008KT 14/M04 A3009 RMK A01 T01401036  RH  029%=      5-min Rain = 0
KGU1 190535Z 26007KT 14/M04 A3009 RMK A01 T01391036  RH  030%=      5-min Rain = 0
KGU1 190536Z 25007KT 14/M04 A3009 RMK A01 T01391037  RH  030%=      5-min Rain = 0
KGU1 190537Z 26009KT 14/M04 A3009 RMK A01 T01381037  RH  030%=      5-min Rain = 0
KGU1 190538Z 26008KT 14/M04 A3009 RMK A01 T01421037  RH  029%=      5-min Rain = 0
KGU1 190539Z 26006KT 14/M04 A3009 RMK A01 T01441038  RH  028%=      5-min Rain = 0
KGU1 190540Z 25006KT 15/M04 A3009 RMK A01 T01461038  RH  028%=      5-min Rain = 0
KGU1 190541Z 25008KT 15/M04 A3009 RMK A01 T01481038  RH  028%=      5-min Rain = 0
KGU1 190542Z 25007KT 15/M04 A3009 RMK A01 T01521038  RH  027%=      5-min Rain = 0
KGU1 190543Z 26006KT 15/M04 A3009 RMK A01 T01521038  RH  027%=      5-min Rain = 0
KGU1 190544Z 26007KT 15/M04 A3009 RMK A01 T01521038  RH  027%=      5-min Rain = 0
KGU1 190545Z 26007KT 15/M04 A3009 RMK A01 T01521037  RH  027%=      5-min Rain = 0
KGU1 190546Z 27008KT 15/M04 A3009 RMK A01 T01491037  RH  028%=      5-min Rain = 0
KGU1 190547Z 28008KT 15/M04 A3009 RMK A01 T01461037  RH  028%=      5-min Rain = 0
KGU1 190548Z 28008KT 14/M04 A3009 RMK A01 T01431037  RH  029%=      5-min Rain = 0
KGU1 190549Z 28010KT 14/M04 A3009 RMK A01 T01401037  RH  029%=      5-min Rain = 0
KGU1 190550Z 28008KT 14/M04 A3009 RMK A01 T01411037  RH  029%=      5-min Rain = 0
KGU1 190551Z 29009KT 14/M04 A3009 RMK A01 T01401037  RH  029%=      5-min Rain = 0
KGU1 190552Z 28009KT 14/M04 A3009 RMK A01 T01401037  RH  029%=      5-min Rain = 0
KGU1 190553Z 28008KT 14/M04 A3009 RMK A01 T01391037  RH  029%=      5-min Rain = 0
KGU1 190554Z 29010KT 14/M04 A3009 RMK A01 T01381038  RH  029%=      5-min Rain = 0
KGU1 190555Z 29009KT 14/M04 A3009 RMK A01 T01401038  RH  029%=      5-min Rain = 0
KGU1 190556Z 29010KT 14/M04 A3009 RMK A01 T01401038  RH  029%=      5-min Rain = 0
KGU1 190557Z 29009KT 14/M04 A3009 RMK A01 T01401038  RH  029%=      5-min Rain = 0
KGU1 190558Z 29011KT 14/M04 A3009 RMK A01 T01411038  RH  029%=      5-min Rain = 0
KGU1 190559Z 29009KT 14/M04 A3009 RMK A01 T01431038  RH  029%=      5-min Rain = 0

Page generated in 0.0702 seconds.